Observation data for Menard on 03/13/2018      Previous  Date       Current Mesonet Observations  Soil Data  Daily Summary Page  Observations in Plain Language
KMD1 130501Z 21003KT 04/M02 A3026 RMK A01 T00361015  RH  069%=      5-min Rain = 0
KMD1 130502Z 21003KT 04/M01 A3026 RMK A01 T00361014  RH  070%=      5-min Rain = 0
KMD1 130503Z 22003KT 04/M01 A3026 RMK A01 T00361013  RH  070%=      5-min Rain = 0
KMD1 130504Z 22003KT 04/M01 A3026 RMK A01 T00361012  RH  071%=      5-min Rain = 0
KMD1 130505Z 24002KT 04/M01 A3026 RMK A01 T00361012  RH  071%=      5-min Rain = 0
KMD1 130506Z 25002KT 04/M01 A3026 RMK A01 T00361012  RH  071%=      5-min Rain = 0
KMD1 130507Z 25002KT 04/M01 A3026 RMK A01 T00361013  RH  070%=      5-min Rain = 0
KMD1 130508Z 26002KT 04/M01 A3026 RMK A01 T00361011  RH  071%=      5-min Rain = 0
KMD1 130509Z 25002KT 04/M01 A3026 RMK A01 T00361009  RH  072%=      5-min Rain = 0
KMD1 130510Z 25002KT 04/M01 A3026 RMK A01 T00361008  RH  073%=      5-min Rain = 0
KMD1 130511Z 25001KT 04/M01 A3026 RMK A01 T00361009  RH  072%=      5-min Rain = 0
KMD1 130512Z 25001KT 04/M01 A3026 RMK A01 T00361011  RH  071%=      5-min Rain = 0
KMD1 130513Z 26001KT 04/M01 A3026 RMK A01 T00361014  RH  070%=      5-min Rain = 0
KMD1 130514Z 26002KT 04/M02 A3026 RMK A01 T00361015  RH  069%=      5-min Rain = 0
KMD1 130515Z 26002KT 04/M02 A3026 RMK A01 T00371015  RH  069%=      5-min Rain = 0
KMD1 130516Z 28001KT 04/M02 A3026 RMK A01 T00371015  RH  069%=      5-min Rain = 0
KMD1 130517Z 28002KT 04/M02 A3026 RMK A01 T00381016  RH  068%=      5-min Rain = 0
KMD1 130518Z 28002KT 04/M02 A3026 RMK A01 T00381017  RH  067%=      5-min Rain = 0
KMD1 130519Z 28002KT 04/M02 A3026 RMK A01 T00381019  RH  066%=      5-min Rain = 0
KMD1 130520Z 29002KT 04/M02 A3026 RMK A01 T00391020  RH  066%=      5-min Rain = 0
KMD1 130521Z 28002KT 04/M02 A3026 RMK A01 T00381021  RH  065%=      5-min Rain = 0
KMD1 130522Z 28002KT 04/M02 A3026 RMK A01 T00371022  RH  065%=      5-min Rain = 0
KMD1 130523Z 28002KT 04/M02 A3026 RMK A01 T00361023  RH  065%=      5-min Rain = 0
KMD1 130524Z 28001KT 04/M02 A3026 RMK A01 T00361023  RH  065%=      5-min Rain = 0
KMD1 130525Z 28001KT 04/M02 A3026 RMK A01 T00351024  RH  066%=      5-min Rain = 0
KMD1 130526Z 27001KT 03/M02 A3026 RMK A01 T00341024  RH  066%=      5-min Rain = 0
KMD1 130527Z 27001KT 03/M02 A3026 RMK A01 T00341024  RH  066%=      5-min Rain = 0
KMD1 130528Z 27001KT 03/M02 A3026 RMK A01 T00331023  RH  066%=      5-min Rain = 0
KMD1 130529Z 26001KT 03/M02 A3026 RMK A01 T00331022  RH  067%=      5-min Rain = 0
KMD1 130530Z 26001KT 03/M02 A3026 RMK A01 T00341022  RH  067%=      5-min Rain = 0
KMD1 130531Z 26001KT 03/M02 A3026 RMK A01 T00341023  RH  067%=      5-min Rain = 0
KMD1 130532Z 26001KT 03/M02 A3026 RMK A01 T00341022  RH  067%=      5-min Rain = 0
KMD1 130533Z 24001KT 03/M02 A3026 RMK A01 T00341021  RH  067%=      5-min Rain = 0
KMD1 130534Z 23001KT 03/M02 A3026 RMK A01 T00341020  RH  068%=      5-min Rain = 0
KMD1 130535Z 23001KT 03/M02 A3026 RMK A01 T00341021  RH  067%=      5-min Rain = 0
KMD1 130536Z 23000KT 03/M02 A3026 RMK A01 T00341022  RH  067%=      5-min Rain = 0
KMD1 130537Z 00000KT 03/M02 A3026 RMK A01 T00341022  RH  067%=      5-min Rain = 0
KMD1 130538Z 00000KT 03/M02 A3026 RMK A01 T00331021  RH  067%=      5-min Rain = 0
KMD1 130539Z 00000KT 03/M02 A3026 RMK A01 T00331021  RH  068%=      5-min Rain = 0
KMD1 130540Z 00000KT 03/M02 A3026 RMK A01 T00331021  RH  068%=      5-min Rain = 0
KMD1 130541Z 00000KT 03/M02 A3026 RMK A01 T00331020  RH  068%=      5-min Rain = 0
KMD1 130542Z 00000KT 03/M02 A3026 RMK A01 T00331020  RH  068%=      5-min Rain = 0
KMD1 130543Z 00000KT 03/M02 A3026 RMK A01 T00321021  RH  068%=      5-min Rain = 0
KMD1 130544Z 00000KT 03/M02 A3026 RMK A01 T00321020  RH  069%=      5-min Rain = 0
KMD1 130545Z 00000KT 03/M02 A3025 RMK A01 T00311020  RH  069%=      5-min Rain = 0
KMD1 130546Z 00000KT 03/M02 A3025 RMK A01 T00311021  RH  069%=      5-min Rain = 0
KMD1 130547Z 00000KT 03/M02 A3025 RMK A01 T00311022  RH  068%=      5-min Rain = 0
KMD1 130548Z 00000KT 03/M02 A3025 RMK A01 T00301023  RH  068%=      5-min Rain = 0
KMD1 130549Z 00000KT 03/M02 A3025 RMK A01 T00301022  RH  069%=      5-min Rain = 0
KMD1 130550Z 00000KT 03/M02 A3025 RMK A01 T00291022  RH  069%=      5-min Rain = 0
KMD1 130551Z 00000KT 03/M02 A3025 RMK A01 T00291023  RH  068%=      5-min Rain = 0
KMD1 130552Z 00000KT 03/M02 A3025 RMK A01 T00301024  RH  068%=      5-min Rain = 0
KMD1 130553Z 00000KT 03/M02 A3025 RMK A01 T00311023  RH  068%=      5-min Rain = 0
KMD1 130554Z 00000KT 03/M02 A3025 RMK A01 T00311023  RH  068%=      5-min Rain = 0
KMD1 130555Z 04000KT 03/M02 A3025 RMK A01 T00301023  RH  068%=      5-min Rain = 0
KMD1 130556Z 00000KT 03/M02 A3025 RMK A01 T00301023  RH  068%=      5-min Rain = 0
KMD1 130557Z 00000KT 03/M03 A3025 RMK A01 T00311025  RH  067%=      5-min Rain = 0
KMD1 130558Z 00000KT 03/M03 A3025 RMK A01 T00321026  RH  066%=      5-min Rain = 0
KMD1 130559Z 00000KT 03/M03 A3025 RMK A01 T00321025  RH  066%=      5-min Rain = 0
KMD1 130600Z 00000KT 03/M02 A3025 RMK A01 T00311024  RH  067%=      5-min Rain = 0
KMD1 130601Z 00000KT 03/M02 A3025 RMK A01 T00301024  RH  068%=      5-min Rain = 0
KMD1 130602Z 00000KT 03/M02 A3025 RMK A01 T00291023  RH  068%=      5-min Rain = 0
KMD1 130603Z 00000KT 03/M02 A3025 RMK A01 T00281023  RH  069%=      5-min Rain = 0
KMD1 130604Z 00000KT 03/M02 A3025 RMK A01 T00261023  RH  070%=      5-min Rain = 0
KMD1 130605Z 00000KT 03/M02 A3025 RMK A01 T00251023  RH  071%=      5-min Rain = 0
KMD1 130606Z 00000KT 03/M02 A3025 RMK A01 T00251023  RH  071%=      5-min Rain = 0
KMD1 130607Z 00000KT 02/M02 A3025 RMK A01 T00241023  RH  071%=      5-min Rain = 0
KMD1 130608Z 00000KT 02/M02 A3025 RMK A01 T00241022  RH  071%=      5-min Rain = 0
KMD1 130609Z 19000KT 02/M02 A3025 RMK A01 T00231022  RH  072%=      5-min Rain = 0
KMD1 130610Z 19001KT 02/M02 A3025 RMK A01 T00231022  RH  072%=      5-min Rain = 0
KMD1 130611Z 21001KT 02/M02 A3025 RMK A01 T00231023  RH  072%=      5-min Rain = 0
KMD1 130612Z 22001KT 02/M02 A3025 RMK A01 T00241023  RH  071%=      5-min Rain = 0
KMD1 130613Z 23001KT 02/M02 A3025 RMK A01 T00241022  RH  072%=      5-min Rain = 0
KMD1 130614Z 25001KT 03/M02 A3025 RMK A01 T00251021  RH  072%=      5-min Rain = 0
KMD1 130615Z 26000KT 03/M02 A3025 RMK A01 T00261020  RH  072%=      5-min Rain = 0
KMD1 130616Z 00000KT 03/M02 A3025 RMK A01 T00261021  RH  071%=      5-min Rain = 0
KMD1 130617Z 00000KT 03/M02 A3025 RMK A01 T00261022  RH  071%=      5-min Rain = 0
KMD1 130618Z 00000KT 03/M02 A3025 RMK A01 T00251024  RH  070%=      5-min Rain = 0
KMD1 130619Z 27000KT 03/M03 A3025 RMK A01 T00251025  RH  070%=      5-min Rain = 0
KMD1 130620Z 26001KT 03/M02 A3025 RMK A01 T00251024  RH  070%=      5-min Rain = 0
KMD1 130621Z 25001KT 02/M02 A3025 RMK A01 T00241023  RH  071%=      5-min Rain = 0
KMD1 130622Z 25001KT 02/M02 A3025 RMK A01 T00241023  RH  071%=      5-min Rain = 0
KMD1 130623Z 26001KT 02/M02 A3025 RMK A01 T00241023  RH  071%=      5-min Rain = 0
KMD1 130624Z 26001KT 02/M02 A3025 RMK A01 T00241023  RH  071%=      5-min Rain = 0
KMD1 130625Z 25001KT 02/M02 A3025 RMK A01 T00241024  RH  071%=      5-min Rain = 0
KMD1 130626Z 26001KT 02/M02 A3025 RMK A01 T00241023  RH  071%=      5-min Rain = 0
KMD1 130627Z 25001KT 02/M02 A3025 RMK A01 T00241022  RH  072%=      5-min Rain = 0
KMD1 130628Z 26001KT 02/M02 A3025 RMK A01 T00241022  RH  072%=      5-min Rain = 0
KMD1 130629Z 27001KT 02/M02 A3025 RMK A01 T00231023  RH  071%=      5-min Rain = 0
KMD1 130630Z 27001KT 02/M02 A3025 RMK A01 T00231024  RH  071%=      5-min Rain = 0
KMD1 130631Z 26001KT 02/M02 A3025 RMK A01 T00231024  RH  071%=      5-min Rain = 0
KMD1 130632Z 27001KT 02/M03 A3025 RMK A01 T00221026  RH  070%=      5-min Rain = 0
KMD1 130633Z 28001KT 02/M03 A3025 RMK A01 T00221028  RH  070%=      5-min Rain = 0
KMD1 130634Z 29001KT 02/M03 A3025 RMK A01 T00221026  RH  070%=      5-min Rain = 0
KMD1 130635Z 29001KT 02/M03 A3025 RMK A01 T00221025  RH  071%=      5-min Rain = 0
KMD1 130636Z 30001KT 02/M03 A3025 RMK A01 T00221025  RH  071%=      5-min Rain = 0
KMD1 130637Z 30001KT 02/M02 A3025 RMK A01 T00231023  RH  072%=      5-min Rain = 0
KMD1 130638Z 32001KT 02/M02 A3025 RMK A01 T00241021  RH  072%=      5-min Rain = 0
KMD1 130639Z 32001KT 03/M02 A3025 RMK A01 T00251020  RH  072%=      5-min Rain = 0
KMD1 130640Z 33000KT 03/M02 A3025 RMK A01 T00251020  RH  072%=      5-min Rain = 0
KMD1 130641Z 35000KT 03/M02 A3025 RMK A01 T00251022  RH  071%=      5-min Rain = 0
KMD1 130642Z 35001KT 02/M03 A3025 RMK A01 T00241025  RH  070%=      5-min Rain = 0
KMD1 130643Z 36001KT 02/M03 A3025 RMK A01 T00221027  RH  070%=      5-min Rain = 0
KMD1 130644Z 35001KT 02/M03 A3025 RMK A01 T00211027  RH  071%=      5-min Rain = 0
KMD1 130645Z 34001KT 02/M03 A3025 RMK A01 T00201028  RH  071%=      5-min Rain = 0
KMD1 130646Z 35001KT 02/M03 A3025 RMK A01 T00191028  RH  071%=      5-min Rain = 0
KMD1 130647Z 31000KT 02/M03 A3025 RMK A01 T00181028  RH  071%=      5-min Rain = 0
KMD1 130648Z 33000KT 02/M03 A3025 RMK A01 T00181028  RH  072%=      5-min Rain = 0
KMD1 130649Z 00000KT 02/M03 A3025 RMK A01 T00171029  RH  072%=      5-min Rain = 0
KMD1 130650Z 00000KT 02/M03 A3025 RMK A01 T00171029  RH  072%=      5-min Rain = 0
KMD1 130651Z 00000KT 02/M03 A3025 RMK A01 T00161029  RH  072%=      5-min Rain = 0
KMD1 130652Z 00000KT 02/M03 A3025 RMK A01 T00161028  RH  072%=      5-min Rain = 0
KMD1 130653Z 00000KT 02/M03 A3025 RMK A01 T00151029  RH  073%=      5-min Rain = 0
KMD1 130654Z 00000KT 01/M03 A3025 RMK A01 T00141028  RH  073%=      5-min Rain = 0
KMD1 130655Z 00000KT 01/M03 A3025 RMK A01 T00141029  RH  073%=      5-min Rain = 0
KMD1 130656Z 00000KT 01/M03 A3025 RMK A01 T00141029  RH  073%=      5-min Rain = 0
KMD1 130657Z 00000KT 01/M03 A3025 RMK A01 T00141029  RH  073%=      5-min Rain = 0
KMD1 130658Z 00000KT 01/M03 A3025 RMK A01 T00141028  RH  074%=      5-min Rain = 0
KMD1 130659Z 00000KT 02/M03 A3025 RMK A01 T00151028  RH  073%=      5-min Rain = 0
KMD1 130700Z 00000KT 02/M03 A3025 RMK A01 T00151029  RH  073%=      5-min Rain = 0
KMD1 130701Z 00000KT 02/M03 A3025 RMK A01 T00161029  RH  072%=      5-min Rain = 0
KMD1 130702Z 00000KT 02/M03 A3025 RMK A01 T00161029  RH  072%=      5-min Rain = 0
KMD1 130703Z 00000KT 02/M03 A3025 RMK A01 T00161029  RH  072%=      5-min Rain = 0
KMD1 130704Z 00000KT 02/M03 A3025 RMK A01 T00161030  RH  072%=      5-min Rain = 0
KMD1 130705Z 00000KT 02/M03 A3025 RMK A01 T00161030  RH  072%=      5-min Rain = 0
KMD1 130706Z 00000KT 02/M03 A3025 RMK A01 T00161030  RH  072%=      5-min Rain = 0
KMD1 130707Z 22000KT 02/M03 A3025 RMK A01 T00161029  RH  072%=      5-min Rain = 0
KMD1 130708Z 22000KT 02/M03 A3025 RMK A01 T00161027  RH  073%=      5-min Rain = 0
KMD1 130709Z 00000KT 02/M03 A3025 RMK A01 T00161025  RH  074%=      5-min Rain = 0
KMD1 130710Z 00000KT 02/M02 A3025 RMK A01 T00171022  RH  076%=      5-min Rain = 0
KMD1 130711Z 00000KT 02/M02 A3025 RMK A01 T00171020  RH  076%=      5-min Rain = 0
KMD1 130712Z 00000KT 02/M02 A3025 RMK A01 T00171020  RH  076%=      5-min Rain = 0
KMD1 130713Z 20001KT 02/M02 A3025 RMK A01 T00171019  RH  077%=      5-min Rain = 0
KMD1 130714Z 20001KT 02/M02 A3025 RMK A01 T00181018  RH  077%=      5-min Rain = 0
KMD1 130715Z 19001KT 02/M02 A3025 RMK A01 T00171017  RH  078%=      5-min Rain = 0
KMD1 130716Z 19000KT 02/M02 A3025 RMK A01 T00171017  RH  078%=      5-min Rain = 0
KMD1 130717Z 00000KT 02/M02 A3025 RMK A01 T00171017  RH  078%=      5-min Rain = 0
KMD1 130718Z 00000KT 02/M02 A3025 RMK A01 T00171017  RH  078%=      5-min Rain = 0
KMD1 130719Z 00000KT 02/M02 A3025 RMK A01 T00171016  RH  078%=      5-min Rain = 0
KMD1 130720Z 00000KT 02/M02 A3025 RMK A01 T00171016  RH  079%=      5-min Rain = 0
KMD1 130721Z 00000KT 02/M02 A3025 RMK A01 T00171016  RH  079%=      5-min Rain = 0
KMD1 130722Z 00000KT 02/M02 A3025 RMK A01 T00161016  RH  079%=      5-min Rain = 0
KMD1 130723Z 21000KT 02/M02 A3025 RMK A01 T00161016  RH  079%=      5-min Rain = 0
KMD1 130724Z 22001KT 02/M02 A3025 RMK A01 T00161015  RH  080%=      5-min Rain = 0
KMD1 130725Z 23001KT 02/M02 A3025 RMK A01 T00161015  RH  080%=      5-min Rain = 0
KMD1 130726Z 24001KT 02/M02 A3025 RMK A01 T00161015  RH  080%=      5-min Rain = 0
KMD1 130727Z 25001KT 02/M02 A3025 RMK A01 T00161015  RH  080%=      5-min Rain = 0
KMD1 130728Z 26001KT 02/M02 A3025 RMK A01 T00161015  RH  080%=      5-min Rain = 0
KMD1 130729Z 26001KT 02/M02 A3025 RMK A01 T00151017  RH  079%=      5-min Rain = 0
KMD1 130730Z 26002KT 02/M02 A3025 RMK A01 T00151017  RH  079%=      5-min Rain = 0
KMD1 130731Z 26002KT 01/M02 A3025 RMK A01 T00141018  RH  079%=      5-min Rain = 0
KMD1 130732Z 26002KT 01/M02 A3025 RMK A01 T00141021  RH  078%=      5-min Rain = 0
KMD1 130733Z 26002KT 01/M03 A3025 RMK A01 T00131026  RH  076%=      5-min Rain = 0
KMD1 130734Z 26002KT 01/M03 A3025 RMK A01 T00121029  RH  074%=      5-min Rain = 0
KMD1 130735Z 26002KT 01/M03 A3025 RMK A01 T00111030  RH  074%=      5-min Rain = 0
KMD1 130736Z 26002KT 01/M03 A3025 RMK A01 T00111030  RH  074%=      5-min Rain = 0
KMD1 130737Z 26002KT 01/M03 A3025 RMK A01 T00111029  RH  075%=      5-min Rain = 0
KMD1 130738Z 26001KT 01/M03 A3025 RMK A01 T00111029  RH  075%=      5-min Rain = 0
KMD1 130739Z 26001KT 01/M03 A3024 RMK A01 T00111028  RH  075%=      5-min Rain = 0
KMD1 130740Z 26002KT 01/M03 A3024 RMK A01 T00111028  RH  075%=      5-min Rain = 0
KMD1 130741Z 26001KT 01/M03 A3024 RMK A01 T00101029  RH  075%=      5-min Rain = 0
KMD1 130742Z 28001KT 01/M03 A3024 RMK A01 T00101029  RH  075%=      5-min Rain = 0
KMD1 130743Z 28001KT 01/M03 A3024 RMK A01 T00101028  RH  075%=      5-min Rain = 0
KMD1 130744Z 29001KT 01/M03 A3024 RMK A01 T00111027  RH  076%=      5-min Rain = 0
KMD1 130745Z 29001KT 01/M03 A3024 RMK A01 T00111026  RH  076%=      5-min Rain = 0
KMD1 130746Z 31000KT 01/M03 A3024 RMK A01 T00121026  RH  076%=      5-min Rain = 0
KMD1 130747Z 31001KT 01/M03 A3024 RMK A01 T00131026  RH  075%=      5-min Rain = 0
KMD1 130748Z 34001KT 01/M03 A3024 RMK A01 T00141026  RH  075%=      5-min Rain = 0
KMD1 130749Z 35001KT 01/M03 A3024 RMK A01 T00141029  RH  073%=      5-min Rain = 0
KMD1 130750Z 35002KT 01/M03 A3024 RMK A01 T00131031  RH  073%=      5-min Rain = 0
KMD1 130751Z 36002KT 01/M03 A3024 RMK A01 T00121031  RH  073%=      5-min Rain = 0
KMD1 130752Z 35003KT 01/M03 A3024 RMK A01 T00101032  RH  074%=      5-min Rain = 0
KMD1 130753Z 35002KT 01/M03 A3024 RMK A01 T00081032  RH  075%=      5-min Rain = 0
KMD1 130754Z 35003KT 01/M03 A3024 RMK A01 T00071032  RH  075%=      5-min Rain = 0
KMD1 130755Z 35003KT 01/M03 A3024 RMK A01 T00071032  RH  075%=      5-min Rain = 0
KMD1 130756Z 35002KT 01/M03 A3024 RMK A01 T00071032  RH  075%=      5-min Rain = 0
KMD1 130757Z 34002KT 01/M03 A3024 RMK A01 T00071032  RH  075%=      5-min Rain = 0
KMD1 130758Z 34002KT 01/M03 A3024 RMK A01 T00071032  RH  075%=      5-min Rain = 0
KMD1 130759Z 34001KT 01/M03 A3024 RMK A01 T00061032  RH  076%=      5-min Rain = 0
KMD1 130800Z 31001KT 01/M03 A3024 RMK A01 T00061031  RH  076%=      5-min Rain = 0
KMD1 130801Z 31000KT 01/M03 A3024 RMK A01 T00051032  RH  076%=      5-min Rain = 0
KMD1 130802Z 00000KT 01/M03 A3024 RMK A01 T00061032  RH  076%=      5-min Rain = 0
KMD1 130803Z 00000KT 01/M03 A3024 RMK A01 T00071032  RH  075%=      5-min Rain = 0
KMD1 130804Z 00000KT 01/M03 A3023 RMK A01 T00081032  RH  075%=      5-min Rain = 0
KMD1 130805Z 00000KT 01/M03 A3023 RMK A01 T00091032  RH  074%=      5-min Rain = 0
KMD1 130806Z 00000KT 01/M03 A3023 RMK A01 T00091033  RH  074%=      5-min Rain = 0
KMD1 130807Z 00000KT 01/M03 A3023 RMK A01 T00091033  RH  074%=      5-min Rain = 0
KMD1 130808Z 00000KT 01/M03 A3023 RMK A01 T00091033  RH  073%=      5-min Rain = 0
KMD1 130809Z 00000KT 01/M03 A3023 RMK A01 T00091033  RH  073%=      5-min Rain = 0
KMD1 130810Z 00000KT 01/M03 A3023 RMK A01 T00091033  RH  073%=      5-min Rain = 0
KMD1 130811Z 29000KT 01/M03 A3024 RMK A01 T00091033  RH  074%=      5-min Rain = 0
KMD1 130812Z 30000KT 01/M03 A3023 RMK A01 T00091032  RH  074%=      5-min Rain = 0
KMD1 130813Z 29000KT 01/M03 A3023 RMK A01 T00091033  RH  074%=      5-min Rain = 0
KMD1 130814Z 24000KT 01/M03 A3023 RMK A01 T00081033  RH  074%=      5-min Rain = 0
KMD1 130815Z 24000KT 01/M03 A3023 RMK A01 T00081034  RH  073%=      5-min Rain = 0
KMD1 130816Z 24000KT 01/M04 A3023 RMK A01 T00081035  RH  073%=      5-min Rain = 0
KMD1 130817Z 24001KT 01/M04 A3023 RMK A01 T00071035  RH  073%=      5-min Rain = 0
KMD1 130818Z 24000KT 01/M03 A3023 RMK A01 T00071034  RH  074%=      5-min Rain = 0
KMD1 130819Z 25001KT 01/M03 A3023 RMK A01 T00071033  RH  074%=      5-min Rain = 0
KMD1 130820Z 25000KT 01/M03 A3023 RMK A01 T00071033  RH  074%=      5-min Rain = 0
KMD1 130821Z 25000KT 01/M03 A3023 RMK A01 T00071032  RH  075%=      5-min Rain = 0
KMD1 130822Z 25000KT 01/M03 A3024 RMK A01 T00081032  RH  075%=      5-min Rain = 0
KMD1 130823Z 27000KT 01/M03 A3024 RMK A01 T00081032  RH  075%=      5-min Rain = 0
KMD1 130824Z 28000KT 01/M03 A3024 RMK A01 T00081031  RH  075%=      5-min Rain = 0
KMD1 130825Z 00000KT 01/M03 A3024 RMK A01 T00081031  RH  075%=      5-min Rain = 0
KMD1 130826Z 00000KT 01/M03 A3023 RMK A01 T00081032  RH  075%=      5-min Rain = 0
KMD1 130827Z 30000KT 01/M03 A3023 RMK A01 T00071032  RH  075%=      5-min Rain = 0
KMD1 130828Z 34000KT 01/M03 A3023 RMK A01 T00071033  RH  075%=      5-min Rain = 0
KMD1 130829Z 34000KT 01/M03 A3023 RMK A01 T00061033  RH  075%=      5-min Rain = 0
KMD1 130830Z 02001KT 01/M03 A3023 RMK A01 T00061033  RH  075%=      5-min Rain = 0
KMD1 130831Z 01001KT 01/M03 A3023 RMK A01 T00061033  RH  075%=      5-min Rain = 0
KMD1 130832Z 36001KT 01/M03 A3023 RMK A01 T00061033  RH  075%=      5-min Rain = 0
KMD1 130833Z 35001KT 01/M03 A3023 RMK A01 T00061032  RH  076%=      5-min Rain = 0
KMD1 130834Z 35001KT 01/M03 A3023 RMK A01 T00051032  RH  076%=      5-min Rain = 0
KMD1 130835Z 33001KT 01/M03 A3023 RMK A01 T00051032  RH  076%=      5-min Rain = 0
KMD1 130836Z 32001KT 00/M03 A3023 RMK A01 T00041032  RH  077%=      5-min Rain = 0
KMD1 130837Z 31001KT 00/M03 A3023 RMK A01 T00031032  RH  077%=      5-min Rain = 0
KMD1 130838Z 30001KT 00/M03 A3023 RMK A01 T00031032  RH  077%=      5-min Rain = 0
KMD1 130839Z 29001KT 00/M03 A3023 RMK A01 T00031032  RH  077%=      5-min Rain = 0
KMD1 130840Z 29001KT 00/M03 A3023 RMK A01 T00041032  RH  076%=      5-min Rain = 0
KMD1 130841Z 30000KT 01/M03 A3023 RMK A01 T00051032  RH  076%=      5-min Rain = 0
KMD1 130842Z 29000KT 01/M03 A3023 RMK A01 T00051032  RH  076%=      5-min Rain = 0
KMD1 130843Z 29000KT 00/M03 A3023 RMK A01 T00041033  RH  076%=      5-min Rain = 0
KMD1 130844Z 29000KT 00/M03 A3023 RMK A01 T00031033  RH  077%=      5-min Rain = 0
KMD1 130845Z 30000KT 00/M03 A3023 RMK A01 T00031033  RH  077%=      5-min Rain = 0
KMD1 130846Z 00000KT 00/M03 A3023 RMK A01 T00031033  RH  077%=      5-min Rain = 0
KMD1 130847Z 00000KT 00/M03 A3023 RMK A01 T00031033  RH  077%=      5-min Rain = 0
KMD1 130848Z 32001KT 00/M03 A3023 RMK A01 T00041032  RH  077%=      5-min Rain = 0
KMD1 130849Z 32000KT 01/M03 A3023 RMK A01 T00051032  RH  076%=      5-min Rain = 0
KMD1 130850Z 00000KT 01/M03 A3023 RMK A01 T00051033  RH  076%=      5-min Rain = 0
KMD1 130851Z 00000KT 01/M03 A3023 RMK A01 T00051033  RH  075%=      5-min Rain = 0
KMD1 130852Z 36000KT 01/M03 A3023 RMK A01 T00061034  RH  075%=      5-min Rain = 0
KMD1 130853Z 35000KT 01/M03 A3023 RMK A01 T00061034  RH  075%=      5-min Rain = 0
KMD1 130854Z 35000KT 01/M03 A3023 RMK A01 T00061034  RH  075%=      5-min Rain = 0
KMD1 130855Z 36000KT 01/M03 A3023 RMK A01 T00061034  RH  075%=      5-min Rain = 0
KMD1 130856Z 35000KT 01/M03 A3023 RMK A01 T00061034  RH  075%=      5-min Rain = 0
KMD1 130857Z 00000KT 01/M03 A3023 RMK A01 T00061034  RH  075%=      5-min Rain = 0
KMD1 130858Z 34000KT 01/M03 A3023 RMK A01 T00061034  RH  075%=      5-min Rain = 0
KMD1 130859Z 00000KT 01/M03 A3023 RMK A01 T00061034  RH  075%=      5-min Rain = 0
KMD1 130900Z 00000KT 01/M03 A3023 RMK A01 T00061032  RH  076%=      5-min Rain = 0
KMD1 130901Z 00000KT 01/M03 A3023 RMK A01 T00061030  RH  077%=      5-min Rain = 0
KMD1 130902Z 00000KT 01/M03 A3023 RMK A01 T00061028  RH  078%=      5-min Rain = 0
KMD1 130903Z 00000KT 01/M03 A3023 RMK A01 T00061026  RH  079%=      5-min Rain = 0
KMD1 130904Z 00000KT 01/M03 A3023 RMK A01 T00071026  RH  079%=      5-min Rain = 0
KMD1 130905Z 00000KT 01/M03 A3023 RMK A01 T00061026  RH  079%=      5-min Rain = 0
KMD1 130906Z 00000KT 01/M03 A3023 RMK A01 T00061025  RH  079%=      5-min Rain = 0
KMD1 130907Z 00000KT 01/M03 A3023 RMK A01 T00061025  RH  080%=      5-min Rain = 0
KMD1 130908Z 00000KT 01/M03 A3023 RMK A01 T00061025  RH  080%=      5-min Rain = 0
KMD1 130909Z 00000KT 01/M03 A3023 RMK A01 T00061025  RH  080%=      5-min Rain = 0
KMD1 130910Z 00000KT 01/M03 A3023 RMK A01 T00051026  RH  080%=      5-min Rain = 0
KMD1 130911Z 00000KT 01/M03 A3023 RMK A01 T00061025  RH  080%=      5-min Rain = 0
KMD1 130912Z 00000KT 01/M03 A3023 RMK A01 T00051025  RH  080%=      5-min Rain = 0
KMD1 130913Z 00000KT 01/M03 A3023 RMK A01 T00051026  RH  080%=      5-min Rain = 0
KMD1 130914Z 00000KT 00/M03 A3023 RMK A01 T00041028  RH  079%=      5-min Rain = 0
KMD1 130915Z 00000KT 00/M03 A3023 RMK A01 T00031029  RH  079%=      5-min Rain = 0
KMD1 130916Z 00000KT 00/M03 A3023 RMK A01 T00031029  RH  079%=      5-min Rain = 0
KMD1 130917Z 00000KT 00/M03 A3023 RMK A01 T00031030  RH  079%=      5-min Rain = 0
KMD1 130918Z 00000KT 00/M03 A3023 RMK A01 T00031030  RH  079%=      5-min Rain = 0
KMD1 130919Z 00000KT 00/M03 A3023 RMK A01 T00031030  RH  079%=      5-min Rain = 0
KMD1 130920Z 02001KT 00/M03 A3023 RMK A01 T00021029  RH  079%=      5-min Rain = 0
KMD1 130921Z 01001KT 00/M03 A3023 RMK A01 T00031030  RH  079%=      5-min Rain = 0
KMD1 130922Z 36002KT 00/M03 A3023 RMK A01 T00031031  RH  078%=      5-min Rain = 0
KMD1 130923Z 35001KT 00/M03 A3023 RMK A01 T00031031  RH  078%=      5-min Rain = 0
KMD1 130924Z 34001KT 00/M03 A3023 RMK A01 T00031032  RH  077%=      5-min Rain = 0
KMD1 130925Z 33001KT 00/M03 A3023 RMK A01 T00031033  RH  077%=      5-min Rain = 0
KMD1 130926Z 31001KT 00/M03 A3023 RMK A01 T00031033  RH  077%=      5-min Rain = 0
KMD1 130927Z 29000KT 00/M03 A3023 RMK A01 T00031032  RH  078%=      5-min Rain = 0
KMD1 130928Z 26000KT 00/M03 A3023 RMK A01 T00031031  RH  078%=      5-min Rain = 0
KMD1 130929Z 25001KT 00/M03 A3023 RMK A01 T00031030  RH  079%=      5-min Rain = 0
KMD1 130930Z 25001KT 00/M03 A3023 RMK A01 T00021028  RH  080%=      5-min Rain = 0
KMD1 130931Z 25001KT 00/M03 A3023 RMK A01 T00031026  RH  081%=      5-min Rain = 0
KMD1 130932Z 25001KT 00/M03 A3023 RMK A01 T00031025  RH  082%=      5-min Rain = 0
KMD1 130933Z 25001KT 00/M03 A3023 RMK A01 T00021025  RH  082%=      5-min Rain = 0
KMD1 130934Z 26001KT 00/M03 A3023 RMK A01 T00021025  RH  082%=      5-min Rain = 0
KMD1 130935Z 25002KT 00/M03 A3023 RMK A01 T00021026  RH  082%=      5-min Rain = 0
KMD1 130936Z 25001KT 00/M03 A3023 RMK A01 T00011029  RH  080%=      5-min Rain = 0
KMD1 130937Z 25001KT 00/03 A3023 RMK A01 T00000-32  RH  079%=      5-min Rain = 0
KMD1 130938Z 26000KT M00/M04 A3023 RMK A01 T10011035  RH  078%=      5-min Rain = 0
KMD1 130939Z 00000KT M00/M04 A3023 RMK A01 T10011037  RH  077%=      5-min Rain = 0
KMD1 130940Z 00000KT M00/M04 A3023 RMK A01 T10021039  RH  076%=      5-min Rain = 0
KMD1 130941Z 00000KT M00/M04 A3023 RMK A01 T10031039  RH  077%=      5-min Rain = 0
KMD1 130942Z 00000KT M00/M04 A3023 RMK A01 T10031038  RH  077%=      5-min Rain = 0
KMD1 130943Z 00000KT M00/M04 A3023 RMK A01 T10041038  RH  078%=      5-min Rain = 0
KMD1 130944Z 00000KT M00/M04 A3023 RMK A01 T10031035  RH  079%=      5-min Rain = 0
KMD1 130945Z 33000KT M00/M03 A3023 RMK A01 T10021032  RH  080%=      5-min Rain = 0
KMD1 130946Z 35001KT 00/03 A3023 RMK A01 T00-00-29  RH  081%=      5-min Rain = 0
KMD1 130947Z 35001KT 00/M03 A3023 RMK A01 T00011030  RH  080%=      5-min Rain = 0
KMD1 130948Z 34001KT 00/M03 A3023 RMK A01 T00011034  RH  078%=      5-min Rain = 0
KMD1 130949Z 34001KT 00/M04 A3023 RMK A01 T00011035  RH  077%=      5-min Rain = 0
KMD1 130950Z 33000KT 00/M04 A3023 RMK A01 T00011035  RH  077%=      5-min Rain = 0
KMD1 130951Z 00000KT 00/M04 A3023 RMK A01 T00011035  RH  077%=      5-min Rain = 0
KMD1 130952Z 34000KT 00/04 A3023 RMK A01 T00000-35  RH  077%=      5-min Rain = 0
KMD1 130953Z 35000KT 00/04 A3023 RMK A01 T00000-35  RH  077%=      5-min Rain = 0
KMD1 130954Z 00000KT 00/04 A3023 RMK A01 T00-00-35  RH  077%=      5-min Rain = 0
KMD1 130955Z 00000KT 00/04 A3023 RMK A01 T00-00-35  RH  077%=      5-min Rain = 0
KMD1 130956Z 00000KT 00/04 A3023 RMK A01 T00-00-35  RH  077%=      5-min Rain = 0
KMD1 130957Z 00000KT 00/04 A3023 RMK A01 T00-00-35  RH  077%=      5-min Rain = 0
KMD1 130958Z 00000KT 00/04 A3023 RMK A01 T00-00-35  RH  078%=      5-min Rain = 0
KMD1 130959Z 00000KT M00/M04 A3023 RMK A01 T10011035  RH  078%=      5-min Rain = 0
KMD1 131000Z 00000KT M00/M03 A3023 RMK A01 T10011034  RH  078%=      5-min Rain = 0
KMD1 131001Z 00000KT M00/M03 A3023 RMK A01 T10021034  RH  078%=      5-min Rain = 0
KMD1 131002Z 00000KT M00/M04 A3023 RMK A01 T10011035  RH  078%=      5-min Rain = 0
KMD1 131003Z 00000KT M00/M04 A3023 RMK A01 T10021036  RH  078%=      5-min Rain = 0
KMD1 131004Z 00000KT M00/M04 A3023 RMK A01 T10021037  RH  077%=      5-min Rain = 0
KMD1 131005Z 00000KT M00/M04 A3023 RMK A01 T10021038  RH  077%=      5-min Rain = 0
KMD1 131006Z 00000KT M00/M04 A3023 RMK A01 T10031038  RH  077%=      5-min Rain = 0
KMD1 131007Z 00000KT M00/M04 A3023 RMK A01 T10031037  RH  078%=      5-min Rain = 0
KMD1 131008Z 00000KT M00/M04 A3023 RMK A01 T10031037  RH  078%=      5-min Rain = 0
KMD1 131009Z 00000KT M00/M04 A3023 RMK A01 T10031037  RH  078%=      5-min Rain = 0
KMD1 131010Z 00000KT M00/M04 A3024 RMK A01 T10031037  RH  078%=      5-min Rain = 0
KMD1 131011Z 00000KT M00/M04 A3024 RMK A01 T10031037  RH  078%=      5-min Rain = 0
KMD1 131012Z 00000KT M00/M04 A3024 RMK A01 T10041037  RH  078%=      5-min Rain = 0
KMD1 131013Z 00000KT M00/M04 A3024 RMK A01 T10041036  RH  079%=      5-min Rain = 0
KMD1 131014Z 00000KT M00/M04 A3024 RMK A01 T10041035  RH  079%=      5-min Rain = 0
KMD1 131015Z 00000KT M00/M04 A3024 RMK A01 T10041035  RH  080%=      5-min Rain = 0
KMD1 131016Z 00000KT M01/M04 A3024 RMK A01 T10051035  RH  080%=      5-min Rain = 0
KMD1 131017Z 00000KT M01/M04 A3024 RMK A01 T10051035  RH  080%=      5-min Rain = 0
KMD1 131018Z 00000KT M01/M04 A3024 RMK A01 T10051035  RH  080%=      5-min Rain = 0
KMD1 131019Z 00000KT M01/M04 A3024 RMK A01 T10051035  RH  081%=      5-min Rain = 0
KMD1 131020Z 00000KT M01/M03 A3024 RMK A01 T10051034  RH  081%=      5-min Rain = 0
KMD1 131021Z 00000KT M01/M03 A3024 RMK A01 T10051034  RH  081%=      5-min Rain = 0
KMD1 131022Z 00000KT M01/M03 A3024 RMK A01 T10051033  RH  081%=      5-min Rain = 0
KMD1 131023Z 00000KT M00/M03 A3024 RMK A01 T10041032  RH  081%=      5-min Rain = 0
KMD1 131024Z 00000KT M00/M03 A3024 RMK A01 T10041031  RH  082%=      5-min Rain = 0
KMD1 131025Z 00000KT M00/M03 A3024 RMK A01 T10041031  RH  082%=      5-min Rain = 0
KMD1 131026Z 00000KT M00/M03 A3024 RMK A01 T10031030  RH  082%=      5-min Rain = 0
KMD1 131027Z 00000KT M00/M03 A3024 RMK A01 T10031030  RH  082%=      5-min Rain = 0
KMD1 131028Z 00000KT M00/M03 A3024 RMK A01 T10031029  RH  082%=      5-min Rain = 0
KMD1 131029Z 00000KT M00/M03 A3024 RMK A01 T10031029  RH  082%=      5-min Rain = 0
KMD1 131030Z 00000KT M00/M03 A3024 RMK A01 T10031029  RH  082%=      5-min Rain = 0
KMD1 131031Z 00000KT M00/M03 A3024 RMK A01 T10021028  RH  083%=      5-min Rain = 0
KMD1 131032Z 00000KT M00/M03 A3024 RMK A01 T10021027  RH  083%=      5-min Rain = 0
KMD1 131033Z 00000KT M00/M03 A3024 RMK A01 T10021026  RH  084%=      5-min Rain = 0
KMD1 131034Z 00000KT M00/M02 A3024 RMK A01 T10011024  RH  084%=      5-min Rain = 0
KMD1 131035Z 21000KT M00/M02 A3024 RMK A01 T10011023  RH  085%=      5-min Rain = 0
KMD1 131036Z 00000KT M00/M02 A3024 RMK A01 T10011023  RH  085%=      5-min Rain = 0
KMD1 131037Z 00000KT M00/M02 A3024 RMK A01 T10011022  RH  086%=      5-min Rain = 0
KMD1 131038Z 00000KT M00/M02 A3024 RMK A01 T10011022  RH  086%=      5-min Rain = 0
KMD1 131039Z 00000KT M00/M02 A3024 RMK A01 T10021023  RH  086%=      5-min Rain = 0
KMD1 131040Z 00000KT M00/M02 A3024 RMK A01 T10021024  RH  085%=      5-min Rain = 0
KMD1 131041Z 00000KT M00/M03 A3024 RMK A01 T10041028  RH  084%=      5-min Rain = 0
KMD1 131042Z 00000KT M01/M03 A3024 RMK A01 T10051030  RH  083%=      5-min Rain = 0
KMD1 131043Z 00000KT M01/M03 A3024 RMK A01 T10051032  RH  082%=      5-min Rain = 0
KMD1 131044Z 00000KT M01/M03 A3024 RMK A01 T10051032  RH  082%=      5-min Rain = 0
KMD1 131045Z 00000KT M01/M03 A3024 RMK A01 T10061032  RH  082%=      5-min Rain = 0
KMD1 131046Z 00000KT M01/M03 A3024 RMK A01 T10061033  RH  082%=      5-min Rain = 0
KMD1 131047Z 00000KT M01/M03 A3024 RMK A01 T10061033  RH  082%=      5-min Rain = 0
KMD1 131048Z 00000KT M01/M03 A3024 RMK A01 T10061032  RH  083%=      5-min Rain = 0
KMD1 131049Z 00000KT M01/M03 A3024 RMK A01 T10061032  RH  083%=      5-min Rain = 0
KMD1 131050Z 00000KT M01/M03 A3024 RMK A01 T10061031  RH  083%=      5-min Rain = 0
KMD1 131051Z 00000KT M01/M03 A3024 RMK A01 T10061031  RH  083%=      5-min Rain = 0
KMD1 131052Z 00000KT M01/M03 A3024 RMK A01 T10051030  RH  083%=      5-min Rain = 0
KMD1 131053Z 00000KT M01/M03 A3024 RMK A01 T10051030  RH  083%=      5-min Rain = 0
KMD1 131054Z 00000KT M01/M03 A3024 RMK A01 T10061030  RH  083%=      5-min Rain = 0
KMD1 131055Z 00000KT M01/M03 A3024 RMK A01 T10051029  RH  084%=      5-min Rain = 0
KMD1 131056Z 05000KT M01/M03 A3024 RMK A01 T10051029  RH  084%=      5-min Rain = 0
KMD1 131057Z 05000KT M01/M03 A3024 RMK A01 T10051028  RH  084%=      5-min Rain = 0
KMD1 131058Z 00000KT M01/M03 A3024 RMK A01 T10051027  RH  085%=      5-min Rain = 0
KMD1 131059Z 01000KT M01/M03 A3024 RMK A01 T10051029  RH  084%=      5-min Rain = 0
KMD1 131100Z 00000KT M01/M03 A3024 RMK A01 T10051031  RH  083%=      5-min Rain = 0
KMD1 131101Z 00000KT M01/M03 A3024 RMK A01 T10051031  RH  082%=      5-min Rain = 0
KMD1 131102Z 01000KT M01/M03 A3024 RMK A01 T10051032  RH  082%=      5-min Rain = 0
KMD1 131103Z 01001KT M01/M03 A3024 RMK A01 T10051033  RH  081%=      5-min Rain = 0
KMD1 131104Z 01001KT M01/M03 A3024 RMK A01 T10061034  RH  081%=      5-min Rain = 0
KMD1 131105Z 01001KT M01/M04 A3024 RMK A01 T10061035  RH  081%=      5-min Rain = 0
KMD1 131106Z 00000KT M01/M04 A3024 RMK A01 T10061035  RH  080%=      5-min Rain = 0
KMD1 131107Z 00000KT M01/M04 A3024 RMK A01 T10061035  RH  080%=      5-min Rain = 0
KMD1 131108Z 00000KT M01/M04 A3024 RMK A01 T10061036  RH  080%=      5-min Rain = 0
KMD1 131109Z 00000KT M01/M04 A3024 RMK A01 T10061036  RH  081%=      5-min Rain = 0
KMD1 131110Z 00000KT M01/M04 A3024 RMK A01 T10071036  RH  081%=      5-min Rain = 0
KMD1 131111Z 00000KT M01/M04 A3024 RMK A01 T10071036  RH  081%=      5-min Rain = 0
KMD1 131112Z 00000KT M01/M04 A3024 RMK A01 T10081036  RH  081%=      5-min Rain = 0
KMD1 131113Z 00000KT M01/M04 A3024 RMK A01 T10081036  RH  081%=      5-min Rain = 0
KMD1 131114Z 00000KT M01/M04 A3024 RMK A01 T10081036  RH  081%=      5-min Rain = 0
KMD1 131115Z 20000KT M01/M04 A3024 RMK A01 T10081036  RH  082%=      5-min Rain = 0
KMD1 131116Z 20000KT M01/M04 A3025 RMK A01 T10081036  RH  082%=      5-min Rain = 0
KMD1 131117Z 20001KT M01/M04 A3025 RMK A01 T10081036  RH  082%=      5-min Rain = 0
KMD1 131118Z 22001KT M01/M04 A3025 RMK A01 T10081035  RH  082%=      5-min Rain = 0
KMD1 131119Z 22001KT M01/M03 A3025 RMK A01 T10081032  RH  084%=      5-min Rain = 0
KMD1 131120Z 22000KT M01/M03 A3025 RMK A01 T10071029  RH  085%=      5-min Rain = 0
KMD1 131121Z 00000KT M01/M03 A3025 RMK A01 T10061027  RH  086%=      5-min Rain = 0
KMD1 131122Z 00000KT M01/M03 A3025 RMK A01 T10071029  RH  085%=      5-min Rain = 0
KMD1 131123Z 00000KT M01/M03 A3025 RMK A01 T10071031  RH  084%=      5-min Rain = 0
KMD1 131124Z 00000KT M01/M03 A3025 RMK A01 T10081033  RH  083%=      5-min Rain = 0
KMD1 131125Z 00000KT M01/M03 A3025 RMK A01 T10091033  RH  083%=      5-min Rain = 0
KMD1 131126Z 00000KT M01/M03 A3025 RMK A01 T10091033  RH  084%=      5-min Rain = 0
KMD1 131127Z 00000KT M01/M03 A3025 RMK A01 T10091033  RH  084%=      5-min Rain = 0
KMD1 131128Z 00000KT M01/M03 A3025 RMK A01 T10081032  RH  084%=      5-min Rain = 0
KMD1 131129Z 00000KT M01/M03 A3025 RMK A01 T10081032  RH  084%=      5-min Rain = 0
KMD1 131130Z 00000KT M01/M03 A3025 RMK A01 T10071032  RH  084%=      5-min Rain = 0
KMD1 131131Z 00000KT M01/M03 A3025 RMK A01 T10081032  RH  084%=      5-min Rain = 0
KMD1 131132Z 00000KT M01/M03 A3026 RMK A01 T10071032  RH  083%=      5-min Rain = 0
KMD1 131133Z 00000KT M01/M03 A3026 RMK A01 T10081033  RH  083%=      5-min Rain = 0
KMD1 131134Z 00000KT M01/M03 A3026 RMK A01 T10081033  RH  083%=      5-min Rain = 0
KMD1 131135Z 00000KT M01/M03 A3026 RMK A01 T10071033  RH  083%=      5-min Rain = 0
KMD1 131136Z 00000KT M01/M03 A3026 RMK A01 T10071033  RH  083%=      5-min Rain = 0
KMD1 131137Z 23000KT M01/M03 A3026 RMK A01 T10071033  RH  083%=      5-min Rain = 0
KMD1 131138Z 23000KT M01/M03 A3026 RMK A01 T10071032  RH  083%=      5-min Rain = 0
KMD1 131139Z 23001KT M01/M03 A3026 RMK A01 T10071030  RH  084%=      5-min Rain = 0
KMD1 131140Z 23001KT M01/M03 A3026 RMK A01 T10061028  RH  085%=      5-min Rain = 0
KMD1 131141Z 00000KT M01/M03 A3026 RMK A01 T10071028  RH  086%=      5-min Rain = 0
KMD1 131142Z 00000KT M01/M03 A3026 RMK A01 T10061027  RH  086%=      5-min Rain = 0
KMD1 131143Z 00000KT M01/M03 A3026 RMK A01 T10071027  RH  086%=      5-min Rain = 0
KMD1 131144Z 23000KT M01/M03 A3026 RMK A01 T10071027  RH  086%=      5-min Rain = 0
KMD1 131145Z 23001KT M01/M03 A3026 RMK A01 T10071026  RH  087%=      5-min Rain = 0
KMD1 131146Z 23001KT M01/M03 A3026 RMK A01 T10061025  RH  087%=      5-min Rain = 0
KMD1 131147Z 23001KT M01/M03 A3026 RMK A01 T10071025  RH  087%=      5-min Rain = 0
KMD1 131148Z 23001KT M01/M03 A3026 RMK A01 T10071026  RH  087%=      5-min Rain = 0
KMD1 131149Z 23001KT M01/M03 A3026 RMK A01 T10071025  RH  087%=      5-min Rain = 0
KMD1 131150Z 23001KT M01/M03 A3026 RMK A01 T10071026  RH  087%=      5-min Rain = 0
KMD1 131151Z 23001KT M01/M03 A3026 RMK A01 T10081026  RH  087%=      5-min Rain = 0
KMD1 131152Z 23000KT M01/M03 A3026 RMK A01 T10081026  RH  087%=      5-min Rain = 0
KMD1 131153Z 23000KT M01/M03 A3026 RMK A01 T10071026  RH  087%=      5-min Rain = 0
KMD1 131154Z 23001KT M01/M03 A3026 RMK A01 T10081027  RH  087%=      5-min Rain = 0
KMD1 131155Z 23001KT M01/M03 A3026 RMK A01 T10081027  RH  087%=      5-min Rain = 0
KMD1 131156Z 23001KT M01/M03 A3026 RMK A01 T10081027  RH  087%=      5-min Rain = 0
KMD1 131157Z 23001KT M01/M03 A3026 RMK A01 T10081028  RH  087%=      5-min Rain = 0
KMD1 131158Z 23001KT M01/M03 A3026 RMK A01 T10091028  RH  087%=      5-min Rain = 0
KMD1 131159Z 23000KT M01/M03 A3026 RMK A01 T10091029  RH  086%=      5-min Rain = 0
KMD1 131200Z 00000KT M01/M03 A3026 RMK A01 T10091029  RH  086%=      5-min Rain = 0
KMD1 131201Z 00000KT M01/M03 A3026 RMK A01 T10091029  RH  086%=      5-min Rain = 0
KMD1 131202Z 00000KT M01/M03 A3026 RMK A01 T10091030  RH  086%=      5-min Rain = 0
KMD1 131203Z 00000KT M01/M03 A3026 RMK A01 T10101031  RH  085%=      5-min Rain = 0
KMD1 131204Z 00000KT M01/M03 A3026 RMK A01 T10101032  RH  085%=      5-min Rain = 0
KMD1 131205Z 00000KT M01/M03 A3026 RMK A01 T10101032  RH  085%=      5-min Rain = 0
KMD1 131206Z 00000KT M01/M03 A3026 RMK A01 T10101032  RH  085%=      5-min Rain = 0
KMD1 131207Z 00000KT M01/M03 A3026 RMK A01 T10101032  RH  085%=      5-min Rain = 0
KMD1 131208Z 01001KT M01/M03 A3026 RMK A01 T10091031  RH  085%=      5-min Rain = 0
KMD1 131209Z 01001KT M01/M03 A3026 RMK A01 T10091031  RH  085%=      5-min Rain = 0
KMD1 131210Z 00002KT M01/M03 A3026 RMK A01 T10091033  RH  084%=      5-min Rain = 0
KMD1 131211Z 36002KT M01/M03 A3026 RMK A01 T10091034  RH  083%=      5-min Rain = 0
KMD1 131212Z 36002KT M01/M04 A3026 RMK A01 T10101035  RH  083%=      5-min Rain = 0
KMD1 131213Z 36002KT M01/M04 A3026 RMK A01 T10111035  RH  084%=      5-min Rain = 0
KMD1 131214Z 00003KT M01/M04 A3026 RMK A01 T10111035  RH  084%=      5-min Rain = 0
KMD1 131215Z 00003KT M01/M04 A3026 RMK A01 T10121035  RH  084%=      5-min Rain = 0
KMD1 131216Z 35003KT M01/M04 A3026 RMK A01 T10121035  RH  084%=      5-min Rain = 0
KMD1 131217Z 35003KT M01/M04 A3026 RMK A01 T10121035  RH  084%=      5-min Rain = 0
KMD1 131218Z 35003KT M01/M04 A3026 RMK A01 T10121035  RH  084%=      5-min Rain = 0
KMD1 131219Z 35002KT M01/M04 A3026 RMK A01 T10121035  RH  084%=      5-min Rain = 0
KMD1 131220Z 35002KT M01/M04 A3026 RMK A01 T10121035  RH  085%=      5-min Rain = 0
KMD1 131221Z 35002KT M01/M04 A3026 RMK A01 T10121035  RH  084%=      5-min Rain = 0
KMD1 131222Z 34002KT M01/M04 A3026 RMK A01 T10121035  RH  084%=      5-min Rain = 0
KMD1 131223Z 34002KT M01/M04 A3026 RMK A01 T10111035  RH  084%=      5-min Rain = 0
KMD1 131224Z 34002KT M01/M04 A3026 RMK A01 T10111035  RH  084%=      5-min Rain = 0
KMD1 131225Z 34002KT M01/M04 A3027 RMK A01 T10101035  RH  083%=      5-min Rain = 0
KMD1 131226Z 34001KT M01/M04 A3027 RMK A01 T10101036  RH  083%=      5-min Rain = 0
KMD1 131227Z 33001KT M01/M04 A3027 RMK A01 T10101036  RH  083%=      5-min Rain = 0
KMD1 131228Z 33001KT M01/M04 A3027 RMK A01 T10101036  RH  083%=      5-min Rain = 0
KMD1 131229Z 33000KT M01/M04 A3027 RMK A01 T10101036  RH  083%=      5-min Rain = 0
KMD1 131230Z 00000KT M01/M04 A3027 RMK A01 T10101036  RH  083%=      5-min Rain = 0
KMD1 131231Z 24000KT M01/M04 A3027 RMK A01 T10101036  RH  083%=      5-min Rain = 0
KMD1 131232Z 24001KT M01/M04 A3027 RMK A01 T10101035  RH  083%=      5-min Rain = 0
KMD1 131233Z 25001KT M01/M04 A3027 RMK A01 T10101035  RH  083%=      5-min Rain = 0
KMD1 131234Z 25001KT M01/M03 A3027 RMK A01 T10101034  RH  084%=      5-min Rain = 0
KMD1 131235Z 25001KT M01/M03 A3028 RMK A01 T10101033  RH  084%=      5-min Rain = 0
KMD1 131236Z 25001KT M01/M03 A3028 RMK A01 T10101033  RH  084%=      5-min Rain = 0
KMD1 131237Z 25001KT M01/M03 A3028 RMK A01 T10101033  RH  084%=      5-min Rain = 0
KMD1 131238Z 25001KT M01/M03 A3028 RMK A01 T10101032  RH  085%=      5-min Rain = 0
KMD1 131239Z 24001KT M01/M03 A3028 RMK A01 T10091030  RH  086%=      5-min Rain = 0
KMD1 131240Z 23002KT M01/M03 A3028 RMK A01 T10091029  RH  086%=      5-min Rain = 0
KMD1 131241Z 22002KT M01/M03 A3028 RMK A01 T10091028  RH  087%=      5-min Rain = 0
KMD1 131242Z 22002KT M01/M03 A3028 RMK A01 T10091028  RH  087%=      5-min Rain = 0
KMD1 131243Z 22002KT M01/M03 A3028 RMK A01 T10091027  RH  087%=      5-min Rain = 0
KMD1 131244Z 22002KT M01/M03 A3028 RMK A01 T10091028  RH  087%=      5-min Rain = 0
KMD1 131245Z 22002KT M01/M03 A3028 RMK A01 T10091027  RH  088%=      5-min Rain = 0
KMD1 131246Z 22001KT M01/M03 A3028 RMK A01 T10091027  RH  088%=      5-min Rain = 0
KMD1 131247Z 22001KT M01/M03 A3028 RMK A01 T10091027  RH  088%=      5-min Rain = 0
KMD1 131248Z 23001KT M01/M03 A3028 RMK A01 T10091026  RH  088%=      5-min Rain = 0
KMD1 131249Z 24001KT M01/M03 A3028 RMK A01 T10091026  RH  088%=      5-min Rain = 0
KMD1 131250Z 24001KT M01/M03 A3028 RMK A01 T10091026  RH  089%=      5-min Rain = 0
KMD1 131251Z 24001KT M01/M03 A3028 RMK A01 T10091026  RH  089%=      5-min Rain = 0
KMD1 131252Z 25001KT M01/M03 A3028 RMK A01 T10091026  RH  089%=      5-min Rain = 0
KMD1 131253Z 26000KT M01/M03 A3028 RMK A01 T10091026  RH  089%=      5-min Rain = 0
KMD1 131254Z 00000KT M01/M03 A3028 RMK A01 T10091026  RH  089%=      5-min Rain = 0
KMD1 131255Z 00000KT M01/M03 A3028 RMK A01 T10101026  RH  089%=      5-min Rain = 0
KMD1 131256Z 00000KT M01/M03 A3028 RMK A01 T10101026  RH  089%=      5-min Rain = 0
KMD1 131257Z 27000KT M01/M03 A3028 RMK A01 T10101027  RH  088%=      5-min Rain = 0
KMD1 131258Z 27001KT M01/M03 A3028 RMK A01 T10101027  RH  088%=      5-min Rain = 0
KMD1 131259Z 28001KT M01/M03 A3028 RMK A01 T10111028  RH  088%=      5-min Rain = 0
KMD1 131300Z 29001KT M01/M03 A3028 RMK A01 T10111030  RH  087%=      5-min Rain = 0
KMD1 131301Z 30001KT M01/M03 A3028 RMK A01 T10111030  RH  087%=      5-min Rain = 0
KMD1 131302Z 32001KT M01/M03 A3028 RMK A01 T10111031  RH  086%=      5-min Rain = 0
KMD1 131303Z 35001KT M01/M03 A3028 RMK A01 T10111032  RH  086%=      5-min Rain = 0
KMD1 131304Z 00001KT M01/M03 A3028 RMK A01 T10111031  RH  086%=      5-min Rain = 0
KMD1 131305Z 00000KT M01/M03 A3028 RMK A01 T10111031  RH  086%=      5-min Rain = 0
KMD1 131306Z 00000KT M01/M03 A3028 RMK A01 T10101029  RH  087%=      5-min Rain = 0
KMD1 131307Z 00000KT M01/M03 A3028 RMK A01 T10101029  RH  087%=      5-min Rain = 0
KMD1 131308Z 00000KT M01/M03 A3028 RMK A01 T10091030  RH  086%=      5-min Rain = 0
KMD1 131309Z 00000KT M01/M03 A3028 RMK A01 T10081029  RH  086%=      5-min Rain = 0
KMD1 131310Z 00000KT M01/M03 A3028 RMK A01 T10081028  RH  086%=      5-min Rain = 0
KMD1 131311Z 00000KT M01/M03 A3028 RMK A01 T10081029  RH  086%=      5-min Rain = 0
KMD1 131312Z 00000KT M01/M03 A3028 RMK A01 T10081029  RH  085%=      5-min Rain = 0
KMD1 131313Z 00000KT M01/M03 A3029 RMK A01 T10071029  RH  085%=      5-min Rain = 0
KMD1 131314Z 00000KT M01/M03 A3029 RMK A01 T10061029  RH  085%=      5-min Rain = 0
KMD1 131315Z 00000KT M01/M03 A3029 RMK A01 T10061028  RH  085%=      5-min Rain = 0
KMD1 131316Z 00000KT M01/M03 A3029 RMK A01 T10051028  RH  085%=      5-min Rain = 0
KMD1 131317Z 00000KT M01/M03 A3029 RMK A01 T10051028  RH  084%=      5-min Rain = 0
KMD1 131318Z 00000KT M01/M03 A3029 RMK A01 T10051029  RH  084%=      5-min Rain = 0
KMD1 131319Z 00000KT M00/M03 A3029 RMK A01 T10041029  RH  083%=      5-min Rain = 0
KMD1 131320Z 00000KT M00/M03 A3029 RMK A01 T10041029  RH  083%=      5-min Rain = 0
KMD1 131321Z 00000KT M00/M03 A3029 RMK A01 T10031029  RH  083%=      5-min Rain = 0
KMD1 131322Z 00000KT M00/M03 A3029 RMK A01 T10031029  RH  083%=      5-min Rain = 0
KMD1 131323Z 00000KT M00/M03 A3029 RMK A01 T10021028  RH  083%=      5-min Rain = 0
KMD1 131324Z 00000KT M00/M03 A3029 RMK A01 T10021028  RH  083%=      5-min Rain = 0
KMD1 131325Z 00000KT M00/M03 A3029 RMK A01 T10011027  RH  083%=      5-min Rain = 0
KMD1 131326Z 00000KT M00/M03 A3029 RMK A01 T10011027  RH  083%=      5-min Rain = 0
KMD1 131327Z 00000KT M00/M03 A3029 RMK A01 T10011027  RH  082%=      5-min Rain = 0
KMD1 131328Z 00000KT M00/M03 A3029 RMK A01 T10011028  RH  082%=      5-min Rain = 0
KMD1 131329Z 00000KT 00/03 A3029 RMK A01 T00-00-28  RH  081%=      5-min Rain = 0
KMD1 131330Z 00000KT 00/03 A3029 RMK A01 T00-00-29  RH  081%=      5-min Rain = 0
KMD1 131331Z 20000KT 00/03 A3029 RMK A01 T00000-28  RH  081%=      5-min Rain = 0
KMD1 131332Z 21000KT 00/M03 A3029 RMK A01 T00011027  RH  081%=      5-min Rain = 0
KMD1 131333Z 22000KT 00/M03 A3029 RMK A01 T00021027  RH  081%=      5-min Rain = 0
KMD1 131334Z 24000KT 00/M03 A3029 RMK A01 T00011027  RH  081%=      5-min Rain = 0
KMD1 131335Z 25001KT 00/M02 A3029 RMK A01 T00021024  RH  082%=      5-min Rain = 0
KMD1 131336Z 25000KT 00/M02 A3029 RMK A01 T00031022  RH  083%=      5-min Rain = 0
KMD1 131337Z 25001KT 00/M02 A3029 RMK A01 T00041021  RH  084%=      5-min Rain = 0
KMD1 131338Z 25001KT 00/M02 A3029 RMK A01 T00041021  RH  084%=      5-min Rain = 0
KMD1 131339Z 25001KT 00/M02 A303 RMK A01 T00041021  RH  084%=      5-min Rain = 0
KMD1 131340Z 25001KT 00/M02 A303 RMK A01 T00041021  RH  083%=      5-min Rain = 0
KMD1 131341Z 26001KT 00/M02 A303 RMK A01 T00041022  RH  083%=      5-min Rain = 0
KMD1 131342Z 26001KT 00/M02 A303 RMK A01 T00041022  RH  083%=      5-min Rain = 0
KMD1 131343Z 25001KT 00/M02 A303 RMK A01 T00041021  RH  083%=      5-min Rain = 0
KMD1 131344Z 24001KT 01/M02 A303 RMK A01 T00051020  RH  084%=      5-min Rain = 0
KMD1 131345Z 24001KT 01/M02 A303 RMK A01 T00051018  RH  084%=      5-min Rain = 0
KMD1 131346Z 25001KT 01/M02 A303 RMK A01 T00051018  RH  085%=      5-min Rain = 0
KMD1 131347Z 25001KT 01/M02 A303 RMK A01 T00061017  RH  085%=      5-min Rain = 0
KMD1 131348Z 25001KT 01/M02 A303 RMK A01 T00061017  RH  085%=      5-min Rain = 0
KMD1 131349Z 24001KT 01/M02 A303 RMK A01 T00051018  RH  084%=      5-min Rain = 0
KMD1 131350Z 24001KT 01/M02 A303 RMK A01 T00051018  RH  085%=      5-min Rain = 0
KMD1 131351Z 24001KT 01/M02 A303 RMK A01 T00061016  RH  085%=      5-min Rain = 0
KMD1 131352Z 23002KT 01/M02 A303 RMK A01 T00071016  RH  085%=      5-min Rain = 0
KMD1 131353Z 23002KT 01/M02 A303 RMK A01 T00071017  RH  084%=      5-min Rain = 0
KMD1 131354Z 22002KT 01/M02 A303 RMK A01 T00071017  RH  084%=      5-min Rain = 0
KMD1 131355Z 22002KT 01/M02 A303 RMK A01 T00071016  RH  084%=      5-min Rain = 0
KMD1 131356Z 22002KT 01/M02 A303 RMK A01 T00081015  RH  085%=      5-min Rain = 0
KMD1 131357Z 23001KT 01/M01 A303 RMK A01 T00081014  RH  085%=      5-min Rain = 0
KMD1 131358Z 23002KT 01/M01 A303 RMK A01 T00091013  RH  085%=      5-min Rain = 0
KMD1 131359Z 24002KT 01/M01 A303 RMK A01 T00091013  RH  086%=      5-min Rain = 0
KMD1 131400Z 24002KT 01/M01 A303 RMK A01 T00091012  RH  086%=      5-min Rain = 0
KMD1 131401Z 24002KT 01/M01 A303 RMK A01 T00101012  RH  085%=      5-min Rain = 0
KMD1 131402Z 24002KT 01/M01 A303 RMK A01 T00111011  RH  086%=      5-min Rain = 0
KMD1 131403Z 24002KT 01/M01 A303 RMK A01 T00121010  RH  086%=      5-min Rain = 0
KMD1 131404Z 24002KT 01/M01 A303 RMK A01 T00131009  RH  085%=      5-min Rain = 0
KMD1 131405Z 24002KT 01/M01 A303 RMK A01 T00131011  RH  084%=      5-min Rain = 0
KMD1 131406Z 25002KT 01/M01 A3031 RMK A01 T00131012  RH  084%=      5-min Rain = 0
KMD1 131407Z 25001KT 01/M01 A3031 RMK A01 T00131013  RH  083%=      5-min Rain = 0
KMD1 131408Z 26001KT 01/M01 A3031 RMK A01 T00131013  RH  082%=      5-min Rain = 0
KMD1 131409Z 28001KT 01/M01 A303 RMK A01 T00141013  RH  082%=      5-min Rain = 0
KMD1 131410Z 26001KT 02/M01 A303 RMK A01 T00151014  RH  081%=      5-min Rain = 0
KMD1 131411Z 27001KT 02/M01 A303 RMK A01 T00151014  RH  081%=      5-min Rain = 0
KMD1 131412Z 27001KT 02/M01 A303 RMK A01 T00161014  RH  080%=      5-min Rain = 0
KMD1 131413Z 27001KT 02/M02 A303 RMK A01 T00171015  RH  080%=      5-min Rain = 0
KMD1 131414Z 25001KT 02/M02 A303 RMK A01 T00181015  RH  079%=      5-min Rain = 0
KMD1 131415Z 26001KT 02/M02 A303 RMK A01 T00181016  RH  078%=      5-min Rain = 0
KMD1 131416Z 26001KT 02/M02 A3031 RMK A01 T00191016  RH  078%=      5-min Rain = 0
KMD1 131417Z 26000KT 02/M02 A3031 RMK A01 T00191017  RH  077%=      5-min Rain = 0
KMD1 131418Z 29000KT 02/M02 A3031 RMK A01 T00201017  RH  077%=      5-min Rain = 0
KMD1 131419Z 30000KT 02/M02 A3031 RMK A01 T00201016  RH  077%=      5-min Rain = 0
KMD1 131420Z 29000KT 02/M02 A3031 RMK A01 T00211016  RH  077%=      5-min Rain = 0
KMD1 131421Z 29001KT 02/M02 A3031 RMK A01 T00221015  RH  077%=      5-min Rain = 0
KMD1 131422Z 28001KT 02/M02 A3031 RMK A01 T00231015  RH  076%=      5-min Rain = 0
KMD1 131423Z 27001KT 02/M02 A3031 RMK A01 T00231016  RH  075%=      5-min Rain = 0
KMD1 131424Z 27001KT 02/M02 A3031 RMK A01 T00241016  RH  075%=      5-min Rain = 0
KMD1 131425Z 25001KT 02/M02 A3031 RMK A01 T00241016  RH  075%=      5-min Rain = 0
KMD1 131426Z 25001KT 03/M02 A3031 RMK A01 T00251016  RH  074%=      5-min Rain = 0
KMD1 131427Z 24001KT 03/M02 A3031 RMK A01 T00261015  RH  074%=      5-min Rain = 0
KMD1 131428Z 25000KT 03/M02 A3031 RMK A01 T00271015  RH  074%=      5-min Rain = 0
KMD1 131429Z 23000KT 03/M02 A3031 RMK A01 T00271015  RH  074%=      5-min Rain = 0
KMD1 131430Z 23000KT 03/M01 A3031 RMK A01 T00291012  RH  074%=      5-min Rain = 0
KMD1 131431Z 26000KT 03/M01 A3031 RMK A01 T00301012  RH  074%=      5-min Rain = 0
KMD1 131432Z 26000KT 03/M01 A3031 RMK A01 T00311012  RH  074%=      5-min Rain = 0
KMD1 131433Z 00000KT 03/M01 A3031 RMK A01 T00311011  RH  073%=      5-min Rain = 0
KMD1 131434Z 03000KT 03/M01 A3031 RMK A01 T00331010  RH  074%=      5-min Rain = 0
KMD1 131435Z 02000KT 03/M01 A3031 RMK A01 T00341009  RH  073%=      5-min Rain = 0
KMD1 131436Z 00000KT 04/M01 A3031 RMK A01 T00351009  RH  073%=      5-min Rain = 0
KMD1 131437Z 36001KT 04/M01 A3031 RMK A01 T00361008  RH  073%=      5-min Rain = 0
KMD1 131438Z 01001KT 04/M01 A3031 RMK A01 T00381008  RH  072%=      5-min Rain = 0
KMD1 131439Z 01000KT 04/M01 A3031 RMK A01 T00391008  RH  072%=      5-min Rain = 0
KMD1 131440Z 35000KT 04/M01 A3031 RMK A01 T00401008  RH  071%=      5-min Rain = 0
KMD1 131441Z 00000KT 04/M01 A3031 RMK A01 T00411006  RH  071%=      5-min Rain = 0
KMD1 131442Z 00000KT 04/M01 A3031 RMK A01 T00431005  RH  071%=      5-min Rain = 0
KMD1 131443Z 00000KT 04/M00 A3031 RMK A01 T00441004  RH  071%=      5-min Rain = 0
KMD1 131444Z 04000KT 05/M00 A3031 RMK A01 T00461003  RH  071%=      5-min Rain = 0
KMD1 131445Z 07000KT 05/M00 A3031 RMK A01 T00481002  RH  070%=      5-min Rain = 0
KMD1 131446Z 00000KT 05/00 A3031 RMK A01 T00490000  RH  071%=      5-min Rain = 0
KMD1 131447Z 00000KT 05/00 A3031 RMK A01 T005100-0  RH  070%=      5-min Rain = 0
KMD1 131448Z 13000KT 05/00 A3031 RMK A01 T005200-0  RH  069%=      5-min Rain = 0
KMD1 131449Z 09000KT 05/M00 A3031 RMK A01 T00521001  RH  068%=      5-min Rain = 0
KMD1 131450Z 09000KT 05/00 A3031 RMK A01 T00540000  RH  068%=      5-min Rain = 0
KMD1 131451Z 00000KT 06/00 A3031 RMK A01 T005500-0  RH  068%=      5-min Rain = 0
KMD1 131452Z 13000KT 06/M00 A3031 RMK A01 T00561001  RH  067%=      5-min Rain = 0
KMD1 131453Z 13000KT 06/M00 A3031 RMK A01 T00561003  RH  066%=      5-min Rain = 0
KMD1 131454Z 11001KT 06/M00 A3031 RMK A01 T00571002  RH  066%=      5-min Rain = 0
KMD1 131455Z 12000KT 06/00 A3031 RMK A01 T005900-0  RH  066%=      5-min Rain = 0
KMD1 131456Z 03000KT 06/00 A3031 RMK A01 T00620001  RH  065%=      5-min Rain = 0
KMD1 131457Z 00000KT 06/M00 A3031 RMK A01 T00641001  RH  063%=      5-min Rain = 0
KMD1 131458Z 00000KT 07/M00 A3031 RMK A01 T00661001  RH  062%=      5-min Rain = 0
KMD1 131459Z 00000KT 07/00 A3031 RMK A01 T00670001  RH  063%=      5-min Rain = 0
KMD1 131500Z 00000KT 07/00 A3031 RMK A01 T00690002  RH  062%=      5-min Rain = 0
KMD1 131501Z 09000KT 07/00 A3032 RMK A01 T00710002  RH  061%=      5-min Rain = 0
KMD1 131502Z 05001KT 07/00 A3032 RMK A01 T007300-0  RH  060%=      5-min Rain = 0
KMD1 131503Z 07002KT 07/M00 A3032 RMK A01 T00731001  RH  059%=      5-min Rain = 0
KMD1 131504Z 06001KT 07/M00 A3032 RMK A01 T00741001  RH  059%=      5-min Rain = 0
KMD1 131505Z 04001KT 08/M00 A3032 RMK A01 T00751001  RH  058%=      5-min Rain = 0
KMD1 131506Z 06002KT 08/M00 A3032 RMK A01 T00761002  RH  058%=      5-min Rain = 0
KMD1 131507Z 04001KT 08/00 A3032 RMK A01 T007600-0  RH  059%=      5-min Rain = 0
KMD1 131508Z 05001KT 08/00 A3032 RMK A01 T00770001  RH  059%=      5-min Rain = 0
KMD1 131509Z 06002KT 08/00 A3032 RMK A01 T00780002  RH  058%=      5-min Rain = 0
KMD1 131510Z 05002KT 08/00 A3032 RMK A01 T00780000  RH  058%=      5-min Rain = 0
KMD1 131511Z 07002KT 08/00 A3032 RMK A01 T00780001  RH  058%=      5-min Rain = 0
KMD1 131512Z 08002KT 08/M00 A3032 RMK A01 T00791001  RH  057%=      5-min Rain = 0
KMD1 131513Z 08001KT 08/00 A3032 RMK A01 T00800001  RH  058%=      5-min Rain = 0
KMD1 131514Z 09002KT 08/00 A3032 RMK A01 T00820004  RH  058%=      5-min Rain = 0
KMD1 131515Z 08002KT 08/00 A3032 RMK A01 T00840004  RH  057%=      5-min Rain = 0
KMD1 131516Z 07002KT 09/00 A3032 RMK A01 T00850003  RH  056%=      5-min Rain = 0
KMD1 131517Z 06002KT 09/00 A3032 RMK A01 T00850003  RH  056%=      5-min Rain = 0
KMD1 131518Z 07002KT 09/00 A3032 RMK A01 T00860004  RH  056%=      5-min Rain = 0
KMD1 131519Z 06001KT 09/00 A3032 RMK A01 T00860004  RH  057%=      5-min Rain = 0
KMD1 131520Z 05001KT 09/01 A3032 RMK A01 T00870005  RH  056%=      5-min Rain = 0
KMD1 131521Z 05001KT 09/01 A3032 RMK A01 T00880006  RH  056%=      5-min Rain = 0
KMD1 131522Z 03002KT 09/01 A3032 RMK A01 T00900007  RH  056%=      5-min Rain = 0
KMD1 131523Z 04002KT 09/00 A3032 RMK A01 T00920004  RH  054%=      5-min Rain = 0
KMD1 131524Z 04002KT 09/00 A3032 RMK A01 T00930004  RH  054%=      5-min Rain = 0
KMD1 131525Z 05002KT 09/00 A3032 RMK A01 T00920003  RH  054%=      5-min Rain = 0
KMD1 131526Z 07001KT 09/00 A3032 RMK A01 T00920004  RH  054%=      5-min Rain = 0
KMD1 131527Z 08001KT 09/01 A3032 RMK A01 T00930007  RH  055%=      5-min Rain = 0
KMD1 131528Z 06001KT 09/01 A3032 RMK A01 T00940006  RH  054%=      5-min Rain = 0
KMD1 131529Z 07001KT 10/01 A3032 RMK A01 T00960007  RH  054%=      5-min Rain = 0
KMD1 131530Z 10001KT 10/00 A3032 RMK A01 T00970004  RH  052%=      5-min Rain = 0
KMD1 131531Z 10002KT 10/01 A3032 RMK A01 T00970005  RH  053%=      5-min Rain = 0
KMD1 131532Z 10002KT 10/00 A3032 RMK A01 T00990004  RH  052%=      5-min Rain = 0
KMD1 131533Z 10002KT 10/01 A3032 RMK A01 T01010005  RH  051%=      5-min Rain = 0
KMD1 131534Z 09003KT 10/00 A3032 RMK A01 T01020004  RH  051%=      5-min Rain = 0
KMD1 131535Z 08002KT 10/01 A3032 RMK A01 T01040007  RH  051%=      5-min Rain = 0
KMD1 131536Z 07002KT 11/01 A3032 RMK A01 T01060007  RH  050%=      5-min Rain = 0
KMD1 131537Z 09001KT 11/01 A3033 RMK A01 T01080005  RH  049%=      5-min Rain = 0
KMD1 131538Z 08003KT 11/01 A3033 RMK A01 T01080008  RH  050%=      5-min Rain = 0
KMD1 131539Z 08002KT 11/01 A3033 RMK A01 T01090007  RH  049%=      5-min Rain = 0
KMD1 131540Z 08003KT 11/01 A3033 RMK A01 T01110009  RH  049%=      5-min Rain = 0
KMD1 131541Z 08002KT 11/01 A3033 RMK A01 T01140011  RH  049%=      5-min Rain = 0
KMD1 131542Z 08003KT 12/01 A3032 RMK A01 T01160012  RH  049%=      5-min Rain = 0
KMD1 131543Z 08004KT 12/01 A3032 RMK A01 T01180010  RH  048%=      5-min Rain = 0
KMD1 131544Z 09003KT 12/01 A3032 RMK A01 T01180008  RH  047%=      5-min Rain = 0
KMD1 131545Z 07003KT 12/01 A3032 RMK A01 T01180009  RH  047%=      5-min Rain = 0
KMD1 131546Z 07005KT 12/01 A3032 RMK A01 T01170007  RH  047%=      5-min Rain = 0
KMD1 131547Z 10004KT 12/01 A3032 RMK A01 T01170008  RH  047%=      5-min Rain = 0
KMD1 131548Z 10003KT 12/01 A3032 RMK A01 T01190011  RH  048%=      5-min Rain = 0
KMD1 131549Z 10004KT 12/02 A3032 RMK A01 T01230016  RH  048%=      5-min Rain = 0
KMD1 131550Z 10005KT 13/01 A3033 RMK A01 T01260009  RH  045%=      5-min Rain = 0
KMD1 131551Z 08004KT 12/01 A3033 RMK A01 T01240005  RH  044%=      5-min Rain = 0
KMD1 131552Z 08004KT 12/01 A3033 RMK A01 T01230008  RH  045%=      5-min Rain = 0
KMD1 131553Z 08005KT 13/01 A3033 RMK A01 T01250014  RH  047%=      5-min Rain = 0
KMD1 131554Z 08005KT 13/01 A3033 RMK A01 T01260009  RH  045%=      5-min Rain = 0
KMD1 131555Z 07004KT 13/01 A3033 RMK A01 T01260011  RH  046%=      5-min Rain = 0
KMD1 131556Z 07004KT 13/01 A3033 RMK A01 T01270010  RH  045%=      5-min Rain = 0
KMD1 131557Z 09006KT 13/01 A3033 RMK A01 T01270011  RH  045%=      5-min Rain = 0
KMD1 131558Z 09005KT 13/01 A3033 RMK A01 T01270010  RH  045%=      5-min Rain = 0
KMD1 131559Z 08004KT 13/01 A3033 RMK A01 T01260008  RH  044%=      5-min Rain = 0
KMD1 131600Z 09004KT 12/01 A3033 RMK A01 T01240005  RH  044%=      5-min Rain = 0
KMD1 131601Z 09005KT 12/01 A3033 RMK A01 T01240009  RH  045%=      5-min Rain = 0
KMD1 131602Z 09004KT 13/01 A3033 RMK A01 T01260008  RH  045%=      5-min Rain = 0
KMD1 131603Z 07004KT 13/01 A3033 RMK A01 T01270011  RH  045%=      5-min Rain = 0
KMD1 131604Z 09004KT 13/01 A3033 RMK A01 T01280008  RH  044%=      5-min Rain = 0
KMD1 131605Z 10006KT 13/01 A3033 RMK A01 T01280008  RH  044%=      5-min Rain = 0
KMD1 131606Z 10005KT 13/01 A3033 RMK A01 T01270007  RH  044%=      5-min Rain = 0
KMD1 131607Z 09005KT 13/01 A3033 RMK A01 T01270007  RH  044%=      5-min Rain = 0
KMD1 131608Z 07005KT 13/01 A3033 RMK A01 T01280008  RH  044%=      5-min Rain = 0
KMD1 131609Z 09005KT 13/01 A3033 RMK A01 T01290008  RH  044%=      5-min Rain = 0
KMD1 131610Z 09004KT 13/01 A3033 RMK A01 T01300008  RH  043%=      5-min Rain = 0
KMD1 131611Z 11005KT 13/01 A3033 RMK A01 T01320012  RH  044%=      5-min Rain = 0
KMD1 131612Z 11004KT 13/01 A3033 RMK A01 T01330010  RH  043%=      5-min Rain = 0
KMD1 131613Z 12002KT 13/01 A3033 RMK A01 T01340009  RH  043%=      5-min Rain = 0
KMD1 131614Z 07001KT 13/01 A3033 RMK A01 T01340009  RH  043%=      5-min Rain = 0
KMD1 131615Z 07000KT 13/01 A3033 RMK A01 T01340009  RH  042%=      5-min Rain = 0
KMD1 131616Z 11005KT 14/01 A3033 RMK A01 T01350009  RH  042%=      5-min Rain = 0
KMD1 131617Z 11004KT 14/01 A3033 RMK A01 T01350009  RH  042%=      5-min Rain = 0
KMD1 131618Z 13002KT 14/01 A3033 RMK A01 T01350010  RH  043%=      5-min Rain = 0
KMD1 131619Z 11003KT 14/01 A3033 RMK A01 T01350010  RH  042%=      5-min Rain = 0
KMD1 131620Z 12002KT 14/01 A3033 RMK A01 T01350008  RH  042%=      5-min Rain = 0
KMD1 131621Z 12005KT 14/01 A3033 RMK A01 T01360012  RH  043%=      5-min Rain = 0
KMD1 131622Z 10004KT 14/01 A3033 RMK A01 T01370009  RH  042%=      5-min Rain = 0
KMD1 131623Z 13002KT 14/01 A3033 RMK A01 T01360008  RH  042%=      5-min Rain = 0
KMD1 131624Z 07001KT 14/01 A3033 RMK A01 T01360009  RH  042%=      5-min Rain = 0
KMD1 131625Z 09002KT 14/01 A3033 RMK A01 T01380010  RH  042%=      5-min Rain = 0
KMD1 131626Z 09004KT 14/01 A3033 RMK A01 T01390006  RH  040%=      5-min Rain = 0
KMD1 131627Z 08006KT 14/00 A3033 RMK A01 T01390004  RH  040%=      5-min Rain = 0
KMD1 131628Z 09004KT 14/00 A3033 RMK A01 T01380003  RH  040%=      5-min Rain = 0
KMD1 131629Z 09003KT 14/01 A3033 RMK A01 T01380011  RH  042%=      5-min Rain = 0
KMD1 131630Z 06001KT 14/01 A3033 RMK A01 T01390005  RH  040%=      5-min Rain = 0
KMD1 131631Z 07002KT 14/01 A3033 RMK A01 T01400010  RH  041%=      5-min Rain = 0
KMD1 131632Z 08003G8KT 14/00 A3032 RMK A01 T01420004  RH  039%=      5-min Rain = 0
KMD1 131633Z 09006KT 14/00 A3032 RMK A01 T01430003  RH  038%=      5-min Rain = 0
KMD1 131634Z 11005KT 14/00 A3032 RMK A01 T01410002  RH  039%=      5-min Rain = 0
KMD1 131635Z 11005KT 14/00 A3032 RMK A01 T01400004  RH  039%=      5-min Rain = 0
KMD1 131636Z 09006KT 14/01 A3032 RMK A01 T01420008  RH  040%=      5-min Rain = 0
KMD1 131637Z 08005KT 14/00 A3032 RMK A01 T01430001  RH  038%=      5-min Rain = 0
KMD1 131638Z 08004KT 14/00 A3032 RMK A01 T014300-0  RH  038%=      5-min Rain = 0
KMD1 131639Z 07002KT 14/M00 A3032 RMK A01 T01421001  RH  038%=      5-min Rain = 0
KMD1 131640Z 09006KT 14/00 A3032 RMK A01 T01410000  RH  038%=      5-min Rain = 0
KMD1 131641Z 10006KT 14/M00 A3032 RMK A01 T01411003  RH  037%=      5-min Rain = 0
KMD1 131642Z 10005KT 14/M01 A3032 RMK A01 T01411005  RH  037%=      5-min Rain = 0
KMD1 131643Z 12002KT 14/M01 A3032 RMK A01 T01401006  RH  037%=      5-min Rain = 0
KMD1 131644Z 11001KT 14/M00 A3032 RMK A01 T01401004  RH  037%=      5-min Rain = 0
KMD1 131645Z 12004KT 14/00 A3032 RMK A01 T01420002  RH  038%=      5-min Rain = 0
KMD1 131646Z 09004KT 14/01 A3032 RMK A01 T01440007  RH  039%=      5-min Rain = 0
KMD1 131647Z 08005KT 15/01 A3032 RMK A01 T01460007  RH  039%=      5-min Rain = 0
KMD1 131648Z 07006KT 15/01 A3032 RMK A01 T01500011  RH  039%=      5-min Rain = 0
KMD1 131649Z 08005KT 15/00 A3032 RMK A01 T01520004  RH  037%=      5-min Rain = 0
KMD1 131650Z 10003KT 15/M00 A3032 RMK A01 T01481003  RH  036%=      5-min Rain = 0
KMD1 131651Z 09007KT 15/00 A3032 RMK A01 T01460004  RH  038%=      5-min Rain = 0
KMD1 131652Z 08007KT 15/00 A3032 RMK A01 T01480002  RH  037%=      5-min Rain = 0
KMD1 131653Z 07006KT 15/M00 A3032 RMK A01 T01481001  RH  036%=      5-min Rain = 0
KMD1 131654Z 04005KT 15/M00 A3032 RMK A01 T01461003  RH  036%=      5-min Rain = 0
KMD1 131655Z 04003KT 14/M01 A3032 RMK A01 T01441005  RH  036%=      5-min Rain = 0
KMD1 131656Z 06003KT 14/M00 A3032 RMK A01 T01431003  RH  037%=      5-min Rain = 0
KMD1 131657Z 06006KT 15/M00 A3032 RMK A01 T01461001  RH  037%=      5-min Rain = 0
KMD1 131658Z 08008KT 15/M00 A3032 RMK A01 T01471001  RH  036%=      5-min Rain = 0
KMD1 131659Z 08006KT 15/M00 A3032 RMK A01 T01471002  RH  036%=      5-min Rain = 0
KMD1 131700Z 08007KT 15/M00 A3032 RMK A01 T01471004  RH  035%=      5-min Rain = 0
KMD1 131701Z 08005KT 15/M00 A3032 RMK A01 T01461003  RH  036%=      5-min Rain = 0
KMD1 131702Z 07003KT 15/M00 A3032 RMK A01 T01451002  RH  037%=      5-min Rain = 0
KMD1 131703Z 12003KT 15/00 A3032 RMK A01 T01450001  RH  037%=      5-min Rain = 0
KMD1 131704Z 12006KT 15/00 A3032 RMK A01 T01490003  RH  037%=      5-min Rain = 0
KMD1 131705Z 12005KT 15/00 A3032 RMK A01 T01500000  RH  036%=      5-min Rain = 0
KMD1 131706Z 12005KT 15/M00 A3032 RMK A01 T01501003  RH  035%=      5-min Rain = 0
KMD1 131707Z 11005KT 15/00 A3032 RMK A01 T01490003  RH  037%=      5-min Rain = 0
KMD1 131708Z 08007KT 15/00 A3032 RMK A01 T01540003  RH  036%=      5-min Rain = 0
KMD1 131709Z 09006KT 15/M00 A3032 RMK A01 T01541004  RH  034%=      5-min Rain = 0
KMD1 131710Z 09008KT 15/M00 A3032 RMK A01 T01541001  RH  035%=      5-min Rain = 0
KMD1 131711Z 09005KT 15/M01 A3032 RMK A01 T01521008  RH  033%=      5-min Rain = 0
KMD1 131712Z 08005KT 15/M01 A3032 RMK A01 T01501005  RH  035%=      5-min Rain = 0
KMD1 131713Z 11005KT 15/M01 A3032 RMK A01 T01511006  RH  034%=      5-min Rain = 0
KMD1 131714Z 12004KT 15/M01 A3032 RMK A01 T01521007  RH  033%=      5-min Rain = 0
KMD1 131715Z 11004KT 15/M00 A3032 RMK A01 T01531003  RH  034%=      5-min Rain = 0
KMD1 131716Z 09005KT 15/00 A3032 RMK A01 T015400-0  RH  035%=      5-min Rain = 0
KMD1 131717Z 08007KT 16/M00 A3032 RMK A01 T01561002  RH  034%=      5-min Rain = 0
KMD1 131718Z 09006KT 16/M01 A3032 RMK A01 T01561006  RH  033%=      5-min Rain = 0
KMD1 131719Z 07006KT 15/M01 A3032 RMK A01 T01531010  RH  033%=      5-min Rain = 0
KMD1 131720Z 08004KT 15/M01 A3032 RMK A01 T01511009  RH  033%=      5-min Rain = 0
KMD1 131721Z 07003KT 15/M01 A3031 RMK A01 T01521006  RH  034%=      5-min Rain = 0
KMD1 131722Z 11003KT 15/M01 A3031 RMK A01 T01521010  RH  033%=      5-min Rain = 0
KMD1 131723Z 10002KT 15/M01 A3031 RMK A01 T01531011  RH  033%=      5-min Rain = 0
KMD1 131724Z 05004KT 15/M01 A3031 RMK A01 T01531008  RH  033%=      5-min Rain = 0
KMD1 131725Z 07004KT 15/M01 A3031 RMK A01 T01531009  RH  033%=      5-min Rain = 0
KMD1 131726Z 08003KT 15/M01 A3031 RMK A01 T01521006  RH  034%=      5-min Rain = 0
KMD1 131727Z 11007KT 15/00 A3031 RMK A01 T01530000  RH  035%=      5-min Rain = 0
KMD1 131728Z 10009KT 16/M00 A3031 RMK A01 T01551002  RH  034%=      5-min Rain = 0
KMD1 131729Z 09007KT 16/M00 A3031 RMK A01 T01551004  RH  034%=      5-min Rain = 0
KMD1 131730Z 11006KT 16/M01 A3031 RMK A01 T01551006  RH  033%=      5-min Rain = 0
KMD1 131731Z 11004KT 15/M01 A3031 RMK A01 T01531009  RH  033%=      5-min Rain = 0
KMD1 131732Z 12003KT 15/M01 A3031 RMK A01 T01531011  RH  032%=      5-min Rain = 0
KMD1 131733Z 16003KT 15/M01 A3031 RMK A01 T01521011  RH  033%=      5-min Rain = 0
KMD1 131734Z 17003KT 15/M01 A3031 RMK A01 T01531006  RH  034%=      5-min Rain = 0
KMD1 131735Z 10005KT 16/M01 A3031 RMK A01 T01551006  RH  033%=      5-min Rain = 0
KMD1 131736Z 09004KT 16/M01 A3031 RMK A01 T01551008  RH  033%=      5-min Rain = 0
KMD1 131737Z 07005KT 16/M00 A3031 RMK A01 T01551004  RH  034%=      5-min Rain = 0
KMD1 131738Z 05006KT 16/M00 A3031 RMK A01 T01551003  RH  034%=      5-min Rain = 0
KMD1 131739Z 06005KT 16/M01 A3031 RMK A01 T01551005  RH  033%=      5-min Rain = 0
KMD1 131740Z 07001KT 15/M01 A3031 RMK A01 T01531009  RH  033%=      5-min Rain = 0
KMD1 131741Z 30000KT 15/M01 A3031 RMK A01 T01511005  RH  034%=      5-min Rain = 0
KMD1 131742Z 28001KT 15/M01 A3031 RMK A01 T01521007  RH  034%=      5-min Rain = 0
KMD1 131743Z 02004KT 16/00 A3031 RMK A01 T015500-0  RH  035%=      5-min Rain = 0
KMD1 131744Z 08007KT 16/00 A303 RMK A01 T01580001  RH  034%=      5-min Rain = 0
KMD1 131745Z 12007KT 16/01 A3031 RMK A01 T01620008  RH  035%=      5-min Rain = 0
KMD1 131746Z 10007KT 17/00 A3031 RMK A01 T01650004  RH  033%=      5-min Rain = 0
KMD1 131747Z 12006KT 17/M00 A3031 RMK A01 T01651001  RH  032%=      5-min Rain = 0
KMD1 131748Z 10008KT 16/M00 A3031 RMK A01 T01611003  RH  033%=      5-min Rain = 0
KMD1 131749Z 09007KT 16/M00 A3031 RMK A01 T01581004  RH  033%=      5-min Rain = 0
KMD1 131750Z 10007KT 16/M00 A3031 RMK A01 T01561002  RH  034%=      5-min Rain = 0
KMD1 131751Z 13003KT 16/M00 A3031 RMK A01 T01561003  RH  034%=      5-min Rain = 0
KMD1 131752Z 12003KT 16/01 A3031 RMK A01 T01590006  RH  035%=      5-min Rain = 0
KMD1 131753Z 12005KT 16/01 A303 RMK A01 T01630006  RH  034%=      5-min Rain = 0
KMD1 131754Z 16001KT 17/00 A303 RMK A01 T01660003  RH  033%=      5-min Rain = 0
KMD1 131755Z 18001KT 17/M00 A303 RMK A01 T01671001  RH  032%=      5-min Rain = 0
KMD1 131756Z 15003KT 17/00 A303 RMK A01 T01660003  RH  033%=      5-min Rain = 0
KMD1 131757Z 09002KT 17/01 A303 RMK A01 T01660007  RH  034%=      5-min Rain = 0
KMD1 131758Z 04002KT 17/00 A303 RMK A01 T01680001  RH  032%=      5-min Rain = 0
KMD1 131759Z 02002KT 17/00 A303 RMK A01 T016700-0  RH  032%=      5-min Rain = 0
KMD1 131800Z 08002KT 17/00 A303 RMK A01 T016600-0  RH  032%=      5-min Rain = 0
KMD1 131801Z 05005KT 17/00 A303 RMK A01 T01670004  RH  033%=      5-min Rain = 0
KMD1 131802Z 05004KT 17/00 A303 RMK A01 T01680004  RH  033%=      5-min Rain = 0
KMD1 131803Z 10004KT 17/00 A303 RMK A01 T01680000  RH  032%=      5-min Rain = 0
KMD1 131804Z 13007KT 17/00 A303 RMK A01 T01660002  RH  033%=      5-min Rain = 0
KMD1 131805Z 13007KT 17/00 A303 RMK A01 T01650004  RH  033%=      5-min Rain = 0
KMD1 131806Z 12002KT 17/01 A303 RMK A01 T01650007  RH  034%=      5-min Rain = 0
KMD1 131807Z 11002KT 17/01 A303 RMK A01 T01680009  RH  034%=      5-min Rain = 0
KMD1 131808Z 09005KT 17/01 A303 RMK A01 T01710007  RH  033%=      5-min Rain = 0
KMD1 131809Z 11004KT 17/00 A303 RMK A01 T01690003  RH  032%=      5-min Rain = 0
KMD1 131810Z 13004KT 17/01 A303 RMK A01 T01680007  RH  034%=      5-min Rain = 0
KMD1 131811Z 11006KT 17/01 A3029 RMK A01 T01680007  RH  034%=      5-min Rain = 0
KMD1 131812Z 11003KT 17/00 A3029 RMK A01 T01660001  RH  032%=      5-min Rain = 0
KMD1 131813Z 10005KT 16/00 A3029 RMK A01 T01640002  RH  033%=      5-min Rain = 0
KMD1 131814Z 10004KT 16/M00 A3029 RMK A01 T01621001  RH  033%=      5-min Rain = 0
KMD1 131815Z 12006KT 16/00 A3029 RMK A01 T01610001  RH  034%=      5-min Rain = 0
KMD1 131816Z 18004KT 16/00 A3029 RMK A01 T01600001  RH  034%=      5-min Rain = 0
KMD1 131817Z 16004KT 16/00 A3029 RMK A01 T01610004  RH  034%=      5-min Rain = 0
KMD1 131818Z 16003KT 17/01 A3029 RMK A01 T01650005  RH  034%=      5-min Rain = 0
KMD1 131819Z 10001KT 17/00 A3029 RMK A01 T01650000  RH  033%=      5-min Rain = 0
KMD1 131820Z 09004KT 17/01 A3029 RMK A01 T01660008  RH  034%=      5-min Rain = 0
KMD1 131821Z 09006KT 17/00 A3029 RMK A01 T01680004  RH  033%=      5-min Rain = 0
KMD1 131822Z 08005KT 17/00 A3029 RMK A01 T01690002  RH  032%=      5-min Rain = 0
KMD1 131823Z 07004KT 17/M00 A3029 RMK A01 T01691002  RH  031%=      5-min Rain = 0
KMD1 131824Z 05009KT 17/00 A3029 RMK A01 T01690001  RH  032%=      5-min Rain = 0
KMD1 131825Z 05005KT 17/M01 A3029 RMK A01 T01671007  RH  031%=      5-min Rain = 0
KMD1 131826Z 02006KT 17/M00 A3029 RMK A01 T01651004  RH  032%=      5-min Rain = 0
KMD1 131827Z 03004KT 17/M00 A3029 RMK A01 T01651004  RH  032%=      5-min Rain = 0
KMD1 131828Z 03001KT 16/M01 A3028 RMK A01 T01641007  RH  031%=      5-min Rain = 0
KMD1 131829Z 09002KT 17/M01 A3028 RMK A01 T01651005  RH  032%=      5-min Rain = 0
KMD1 131830Z 11003KT 17/M00 A3028 RMK A01 T01671003  RH  031%=      5-min Rain = 0
KMD1 131831Z 09003KT 17/00 A3028 RMK A01 T01690001  RH  032%=      5-min Rain = 0
KMD1 131832Z 03003KT 17/00 A3028 RMK A01 T01710001  RH  032%=      5-min Rain = 0
KMD1 131833Z 02004KT 17/00 A3028 RMK A01 T01730004  RH  032%=      5-min Rain = 0
KMD1 131834Z 02003KT 18/00 A3028 RMK A01 T01750000  RH  031%=      5-min Rain = 0
KMD1 131835Z 35003KT 18/M00 A3028 RMK A01 T01751003  RH  030%=      5-min Rain = 0
KMD1 131836Z 08001KT 17/00 A3028 RMK A01 T01740003  RH  031%=      5-min Rain = 0
KMD1 131837Z 06005KT 18/M01 A3028 RMK A01 T01751005  RH  030%=      5-min Rain = 0
KMD1 131838Z 05005KT 17/M00 A3028 RMK A01 T01731004  RH  030%=      5-min Rain = 0
KMD1 131839Z 10005G10KT 17/M00 A3028 RMK A01 T01721002  RH  031%=      5-min Rain = 0
KMD1 131840Z 07002KT 17/M00 A3028 RMK A01 T01721003  RH  030%=      5-min Rain = 0
KMD1 131841Z 13001KT 17/00 A3028 RMK A01 T01720001  RH  031%=      5-min Rain = 0
KMD1 131842Z 15005KT 17/00 A3028 RMK A01 T01730002  RH  032%=      5-min Rain = 0
KMD1 131843Z 11009KT 18/00 A3028 RMK A01 T01750003  RH  031%=      5-min Rain = 0
KMD1 131844Z 08008KT 18/01 A3028 RMK A01 T01760006  RH  032%=      5-min Rain = 0
KMD1 131845Z 06006KT 18/00 A3028 RMK A01 T01780004  RH  031%=      5-min Rain = 0
KMD1 131846Z 08007KT 18/00 A3028 RMK A01 T01770002  RH  031%=      5-min Rain = 0
KMD1 131847Z 08007KT 18/00 A3028 RMK A01 T01760000  RH  031%=      5-min Rain = 0
KMD1 131848Z 09007KT 17/00 A3027 RMK A01 T01730002  RH  031%=      5-min Rain = 0
KMD1 131849Z 09004KT 17/00 A3027 RMK A01 T01730000  RH  031%=      5-min Rain = 0
KMD1 131850Z 08004KT 17/00 A3027 RMK A01 T017300-0  RH  031%=      5-min Rain = 0
KMD1 131851Z 05009KT 17/00 A3027 RMK A01 T01740002  RH  031%=      5-min Rain = 0
KMD1 131852Z 05008KT 18/M00 A3027 RMK A01 T01751003  RH  030%=      5-min Rain = 0
KMD1 131853Z 07007KT 18/M00 A3027 RMK A01 T01751002  RH  030%=      5-min Rain = 0
KMD1 131854Z 03007KT 18/M00 A3027 RMK A01 T01771001  RH  030%=      5-min Rain = 0
KMD1 131855Z 03007KT 18/M01 A3027 RMK A01 T01781005  RH  029%=      5-min Rain = 0
KMD1 131856Z 02008KT 18/M01 A3027 RMK A01 T01761008  RH  029%=      5-min Rain = 0
KMD1 131857Z 03006KT 17/M01 A3027 RMK A01 T01741007  RH  029%=      5-min Rain = 0
KMD1 131858Z 06006KT 17/M01 A3028 RMK A01 T01731010  RH  029%=      5-min Rain = 0
KMD1 131859Z 05008KT 17/M01 A3028 RMK A01 T01711011  RH  029%=      5-min Rain = 0
KMD1 131900Z 04006KT 17/M01 A3027 RMK A01 T01691012  RH  029%=      5-min Rain = 0
KMD1 131901Z 03003KT 17/M01 A3027 RMK A01 T01681010  RH  030%=      5-min Rain = 0
KMD1 131902Z 08007KT 17/M00 A3027 RMK A01 T01691003  RH  031%=      5-min Rain = 0
KMD1 131903Z 11005KT 17/M01 A3027 RMK A01 T01721005  RH  030%=      5-min Rain = 0
KMD1 131904Z 09004KT 17/M01 A3027 RMK A01 T01721010  RH  029%=      5-min Rain = 0
KMD1 131905Z 09003KT 17/M01 A3027 RMK A01 T01711005  RH  030%=      5-min Rain = 0
KMD1 131906Z 08006G14KT 17/00 A3027 RMK A01 T017300-0  RH  031%=      5-min Rain = 0
KMD1 131907Z 09012KT 18/00 A3027 RMK A01 T01760000  RH  030%=      5-min Rain = 0
KMD1 131908Z 10012KT 18/M00 A3027 RMK A01 T01751001  RH  030%=      5-min Rain = 0
KMD1 131909Z 10011KT 18/00 A3027 RMK A01 T01760001  RH  031%=      5-min Rain = 0
KMD1 131910Z 09010KT 18/M00 A3027 RMK A01 T01771002  RH  030%=      5-min Rain = 0
KMD1 131911Z 08012KT 18/M00 A3027 RMK A01 T01771002  RH  030%=      5-min Rain = 0
KMD1 131912Z 08010KT 18/00 A3027 RMK A01 T01780002  RH  030%=      5-min Rain = 0
KMD1 131913Z 09007KT 18/00 A3027 RMK A01 T01800000  RH  030%=      5-min Rain = 0
KMD1 131914Z 05007KT 18/M00 A3027 RMK A01 T01811004  RH  029%=      5-min Rain = 0
KMD1 131915Z 03005KT 18/M01 A3027 RMK A01 T01781008  RH  028%=      5-min Rain = 0
KMD1 131916Z 06004KT 18/M01 A3027 RMK A01 T01781006  RH  029%=      5-min Rain = 0
KMD1 131917Z 08008KT 18/M01 A3027 RMK A01 T01781005  RH  029%=      5-min Rain = 0
KMD1 131918Z 08004KT 18/M01 A3027 RMK A01 T01781006  RH  029%=      5-min Rain = 0
KMD1 131919Z 04006KT 18/M00 A3027 RMK A01 T01781001  RH  030%=      5-min Rain = 0
KMD1 131920Z 05006KT 18/M00 A3026 RMK A01 T01791002  RH  029%=      5-min Rain = 0
KMD1 131921Z 05005KT 18/M01 A3026 RMK A01 T01801005  RH  029%=      5-min Rain = 0
KMD1 131922Z 03003KT 18/M00 A3026 RMK A01 T01801004  RH  029%=      5-min Rain = 0
KMD1 131923Z 03003KT 18/M00 A3026 RMK A01 T01801004  RH  029%=      5-min Rain = 0
KMD1 131924Z 11005KT 18/M01 A3026 RMK A01 T01791005  RH  029%=      5-min Rain = 0
KMD1 131925Z 10004KT 18/00 A3026 RMK A01 T01790001  RH  030%=      5-min Rain = 0
KMD1 131926Z 10005KT 18/00 A3026 RMK A01 T01820001  RH  030%=      5-min Rain = 0
KMD1 131927Z 11008KT 18/00 A3026 RMK A01 T01840001  RH  029%=      5-min Rain = 0
KMD1 131928Z 10009KT 18/00 A3026 RMK A01 T01840000  RH  029%=      5-min Rain = 0
KMD1 131929Z 10007KT 18/M00 A3026 RMK A01 T01831002  RH  029%=      5-min Rain = 0
KMD1 131930Z 08012KT 18/M00 A3026 RMK A01 T01831001  RH  029%=      5-min Rain = 0
KMD1 131931Z 07012KT 18/M01 A3026 RMK A01 T01821007  RH  028%=      5-min Rain = 0
KMD1 131932Z 05013KT 18/M01 A3026 RMK A01 T01821006  RH  028%=      5-min Rain = 0
KMD1 131933Z 05010KT 18/M00 A3026 RMK A01 T01841003  RH  028%=      5-min Rain = 0
KMD1 131934Z 06009KT 19/M01 A3026 RMK A01 T01851008  RH  027%=      5-min Rain = 0
KMD1 131935Z 07008KT 18/M01 A3026 RMK A01 T01831009  RH  027%=      5-min Rain = 0
KMD1 131936Z 06007G12KT 18/M01 A3026 RMK A01 T01801010  RH  028%=      5-min Rain = 0
KMD1 131937Z 08005KT 18/M01 A3026 RMK A01 T01771013  RH  027%=      5-min Rain = 0
KMD1 131938Z 04006KT 18/M01 A3025 RMK A01 T01771010  RH  028%=      5-min Rain = 0
KMD1 131939Z 01004KT 18/M01 A3025 RMK A01 T01761010  RH  028%=      5-min Rain = 0
KMD1 131940Z 01004KT 18/M01 A3025 RMK A01 T01771008  RH  029%=      5-min Rain = 0
KMD1 131941Z 02001KT 18/M01 A3025 RMK A01 T01781008  RH  028%=      5-min Rain = 0
KMD1 131942Z 10005KT 18/M01 A3025 RMK A01 T01801006  RH  028%=      5-min Rain = 0
KMD1 131943Z 12003KT 18/M01 A3025 RMK A01 T01801010  RH  028%=      5-min Rain = 0
KMD1 131944Z 03002KT 18/M00 A3025 RMK A01 T01781001  RH  030%=      5-min Rain = 0
KMD1 131945Z 04004KT 18/M01 A3025 RMK A01 T01801006  RH  028%=      5-min Rain = 0
KMD1 131946Z 05004KT 18/M01 A3025 RMK A01 T01791009  RH  028%=      5-min Rain = 0
KMD1 131947Z 03011KT 18/M00 A3025 RMK A01 T01801002  RH  029%=      5-min Rain = 0
KMD1 131948Z 03011KT 18/M01 A3025 RMK A01 T01821009  RH  027%=      5-min Rain = 0
KMD1 131949Z 03008KT 18/M01 A3025 RMK A01 T01811008  RH  028%=      5-min Rain = 0
KMD1 131950Z 03009KT 18/M01 A3025 RMK A01 T01801010  RH  027%=      5-min Rain = 0
KMD1 131951Z 03006KT 18/M01 A3025 RMK A01 T01801011  RH  027%=      5-min Rain = 0
KMD1 131952Z 05008G13KT 18/M01 A3025 RMK A01 T01801005  RH  029%=      5-min Rain = 0
KMD1 131953Z 06009G14KT 18/M01 A3025 RMK A01 T01831007  RH  028%=      5-min Rain = 0
KMD1 131954Z 03010KT 18/M01 A3025 RMK A01 T01821010  RH  027%=      5-min Rain = 0
KMD1 131955Z 04008KT 18/M01 A3025 RMK A01 T01801012  RH  027%=      5-min Rain = 0
KMD1 131956Z 06012KT 18/M01 A3025 RMK A01 T01811010  RH  027%=      5-min Rain = 0
KMD1 131957Z 06012KT 18/M01 A3025 RMK A01 T01801006  RH  028%=      5-min Rain = 0
KMD1 131958Z 05009KT 18/M01 A3025 RMK A01 T01831009  RH  027%=      5-min Rain = 0
KMD1 131959Z 05008KT 18/M01 A3025 RMK A01 T01821009  RH  027%=      5-min Rain = 0
KMD1 132000Z 03006KT 18/M01 A3025 RMK A01 T01811014  RH  026%=      5-min Rain = 0
KMD1 132001Z 04007KT 18/M01 A3025 RMK A01 T01801009  RH  028%=      5-min Rain = 0
KMD1 132002Z 05010KT 18/M01 A3025 RMK A01 T01821008  RH  028%=      5-min Rain = 0
KMD1 132003Z 04009KT 18/M01 A3025 RMK A01 T01821008  RH  028%=      5-min Rain = 0
KMD1 132004Z 04008KT 18/M01 A3025 RMK A01 T01811008  RH  028%=      5-min Rain = 0
KMD1 132005Z 06006KT 18/M01 A3025 RMK A01 T01801011  RH  027%=      5-min Rain = 0
KMD1 132006Z 04008KT 18/M01 A3025 RMK A01 T01811005  RH  028%=      5-min Rain = 0
KMD1 132007Z 04006KT 18/M01 A3025 RMK A01 T01831008  RH  027%=      5-min Rain = 0
KMD1 132008Z 06009KT 19/M00 A3025 RMK A01 T01851004  RH  028%=      5-min Rain = 0
KMD1 132009Z 08009KT 18/M02 A3025 RMK A01 T01841016  RH  026%=      5-min Rain = 0
KMD1 132010Z 08008KT 18/M02 A3025 RMK A01 T01801015  RH  026%=      5-min Rain = 0
KMD1 132011Z 07008KT 18/M01 A3025 RMK A01 T01801005  RH  029%=      5-min Rain = 0
KMD1 132012Z 07005KT 18/M01 A3024 RMK A01 T01821010  RH  027%=      5-min Rain = 0
KMD1 132013Z 07005KT 18/M01 A3024 RMK A01 T01781012  RH  027%=      5-min Rain = 0
KMD1 132014Z 06005KT 18/M01 A3024 RMK A01 T01771005  RH  029%=      5-min Rain = 0
KMD1 132015Z 12006KT 18/M01 A3024 RMK A01 T01771009  RH  028%=      5-min Rain = 0
KMD1 132016Z 11007KT 18/M01 A3025 RMK A01 T01771012  RH  028%=      5-min Rain = 0
KMD1 132017Z 11005KT 18/M01 A3025 RMK A01 T01761012  RH  028%=      5-min Rain = 0
KMD1 132018Z 12006KT 18/M01 A3025 RMK A01 T01761009  RH  028%=      5-min Rain = 0
KMD1 132019Z 10006KT 18/M01 A3025 RMK A01 T01761013  RH  028%=      5-min Rain = 0
KMD1 132020Z 08006KT 18/M01 A3025 RMK A01 T01781006  RH  029%=      5-min Rain = 0
KMD1 132021Z 07008KT 18/M01 A3025 RMK A01 T01791011  RH  027%=      5-min Rain = 0
KMD1 132022Z 07007KT 18/M01 A3025 RMK A01 T01791011  RH  028%=      5-min Rain = 0
KMD1 132023Z 07004KT 18/M01 A3025 RMK A01 T01781013  RH  027%=      5-min Rain = 0
KMD1 132024Z 07002KT 18/M01 A3025 RMK A01 T01771012  RH  028%=      5-min Rain = 0
KMD1 132025Z 12003KT 18/M01 A3025 RMK A01 T01771013  RH  028%=      5-min Rain = 0
KMD1 132026Z 10004KT 18/M01 A3024 RMK A01 T01771008  RH  028%=      5-min Rain = 0
KMD1 132027Z 10004KT 18/M01 A3024 RMK A01 T01781011  RH  028%=      5-min Rain = 0
KMD1 132028Z 11003KT 18/M01 A3024 RMK A01 T01781013  RH  027%=      5-min Rain = 0
KMD1 132029Z 09007KT 18/M00 A3024 RMK A01 T01791004  RH  029%=      5-min Rain = 0
KMD1 132030Z 09008KT 18/M01 A3025 RMK A01 T01821007  RH  028%=      5-min Rain = 0
KMD1 132031Z 08009KT 18/M01 A3025 RMK A01 T01821009  RH  027%=      5-min Rain = 0
KMD1 132032Z 08011KT 18/M01 A3025 RMK A01 T01821007  RH  028%=      5-min Rain = 0
KMD1 132033Z 08011KT 18/M01 A3025 RMK A01 T01811008  RH  028%=      5-min Rain = 0
KMD1 132034Z 07008KT 18/M01 A3024 RMK A01 T01801008  RH  028%=      5-min Rain = 0
KMD1 132035Z 07006KT 18/M01 A3024 RMK A01 T01801010  RH  028%=      5-min Rain = 0
KMD1 132036Z 05008KT 18/M01 A3024 RMK A01 T01801010  RH  027%=      5-min Rain = 0
KMD1 132037Z 09008KT 18/M01 A3024 RMK A01 T01811010  RH  027%=      5-min Rain = 0
KMD1 132038Z 09006KT 18/M01 A3024 RMK A01 T01811008  RH  028%=      5-min Rain = 0
KMD1 132039Z 12003KT 18/M01 A3024 RMK A01 T01801013  RH  027%=      5-min Rain = 0
KMD1 132040Z 11003KT 18/M01 A3024 RMK A01 T01801006  RH  028%=      5-min Rain = 0
KMD1 132041Z 06005KT 18/M01 A3024 RMK A01 T01821006  RH  028%=      5-min Rain = 0
KMD1 132042Z 06005KT 18/M01 A3024 RMK A01 T01831010  RH  027%=      5-min Rain = 0
KMD1 132043Z 09007KT 18/M01 A3024 RMK A01 T01831006  RH  028%=      5-min Rain = 0
KMD1 132044Z 10007KT 18/M01 A3024 RMK A01 T01831007  RH  028%=      5-min Rain = 0
KMD1 132045Z 10010KT 18/M01 A3024 RMK A01 T01821005  RH  028%=      5-min Rain = 0
KMD1 132046Z 09011KT 18/M01 A3024 RMK A01 T01801010  RH  028%=      5-min Rain = 0
KMD1 132047Z 09008KT 18/M01 A3024 RMK A01 T01771013  RH  027%=      5-min Rain = 0
KMD1 132048Z 11009KT 18/M01 A3024 RMK A01 T01761010  RH  028%=      5-min Rain = 0
KMD1 132049Z 11007KT 18/M01 A3023 RMK A01 T01771011  RH  028%=      5-min Rain = 0
KMD1 132050Z 11009KT 18/M01 A3024 RMK A01 T01761010  RH  028%=      5-min Rain = 0
KMD1 132051Z 10005KT 18/M02 A3023 RMK A01 T01761015  RH  027%=      5-min Rain = 0
KMD1 132052Z 10005KT 18/M01 A3023 RMK A01 T01751014  RH  028%=      5-min Rain = 0
KMD1 132053Z 08004KT 17/M01 A3023 RMK A01 T01741011  RH  028%=      5-min Rain = 0
KMD1 132054Z 07005KT 18/M01 A3023 RMK A01 T01751011  RH  028%=      5-min Rain = 0
KMD1 132055Z 08004KT 18/M02 A3023 RMK A01 T01751016  RH  027%=      5-min Rain = 0
KMD1 132056Z 08006KT 18/M01 A3023 RMK A01 T01751011  RH  028%=      5-min Rain = 0
KMD1 132057Z 12006KT 18/M01 A3023 RMK A01 T01751009  RH  029%=      5-min Rain = 0
KMD1 132058Z 11007KT 18/M01 A3023 RMK A01 T01771006  RH  029%=      5-min Rain = 0
KMD1 132059Z 10007KT 18/M01 A3023 RMK A01 T01781008  RH  028%=      5-min Rain = 0
KMD1 132100Z 09005KT 18/M01 A3023 RMK A01 T01781009  RH  028%=      5-min Rain = 0
KMD1 132101Z 09009KT 18/M01 A3023 RMK A01 T01781008  RH  028%=      5-min Rain = 0
KMD1 132102Z 08010KT 18/M01 A3023 RMK A01 T01781010  RH  028%=      5-min Rain = 0
KMD1 132103Z 08011KT 18/M01 A3023 RMK A01 T01781011  RH  028%=      5-min Rain = 0
KMD1 132104Z 07010KT 18/M01 A3023 RMK A01 T01771014  RH  027%=      5-min Rain = 0
KMD1 132105Z 06007KT 18/M01 A3023 RMK A01 T01761012  RH  028%=      5-min Rain = 0
KMD1 132106Z 05010KT 18/M01 A3023 RMK A01 T01761014  RH  027%=      5-min Rain = 0
KMD1 132107Z 05008KT 18/M02 A3023 RMK A01 T01761015  RH  027%=      5-min Rain = 0
KMD1 132108Z 06005KT 18/M02 A3024 RMK A01 T01761017  RH  027%=      5-min Rain = 0
KMD1 132109Z 05003KT 17/M02 A3023 RMK A01 T01741019  RH  027%=      5-min Rain = 0
KMD1 132110Z 08004KT 17/M02 A3023 RMK A01 T01741015  RH  028%=      5-min Rain = 0
KMD1 132111Z 07005KT 18/M02 A3023 RMK A01 T01751016  RH  027%=      5-min Rain = 0
KMD1 132112Z 08008KT 18/M02 A3023 RMK A01 T01761016  RH  027%=      5-min Rain = 0
KMD1 132113Z 08007KT 18/M02 A3023 RMK A01 T01771020  RH  026%=      5-min Rain = 0
KMD1 132114Z 10007KT 18/M02 A3023 RMK A01 T01771018  RH  027%=      5-min Rain = 0
KMD1 132115Z 09008KT 18/M02 A3023 RMK A01 T01771017  RH  027%=      5-min Rain = 0
KMD1 132116Z 10007KT 18/M02 A3023 RMK A01 T01771019  RH  026%=      5-min Rain = 0
KMD1 132117Z 10007KT 18/M02 A3023 RMK A01 T01781016  RH  027%=      5-min Rain = 0
KMD1 132118Z 07010KT 18/M02 A3023 RMK A01 T01801016  RH  026%=      5-min Rain = 0
KMD1 132119Z 06008KT 18/M02 A3023 RMK A01 T01801024  RH  025%=      5-min Rain = 0
KMD1 132120Z 06006KT 18/M02 A3023 RMK A01 T01791021  RH  026%=      5-min Rain = 0
KMD1 132121Z 07005KT 18/M02 A3023 RMK A01 T01791020  RH  026%=      5-min Rain = 0
KMD1 132122Z 04006KT 18/M02 A3023 RMK A01 T01801018  RH  026%=      5-min Rain = 0
KMD1 132123Z 03009KT 18/M02 A3023 RMK A01 T01811020  RH  025%=      5-min Rain = 0
KMD1 132124Z 05010KT 18/M02 A3023 RMK A01 T01811021  RH  025%=      5-min Rain = 0
KMD1 132125Z 05007KT 18/M02 A3023 RMK A01 T01811024  RH  025%=      5-min Rain = 0
KMD1 132126Z 06010KT 18/M02 A3023 RMK A01 T01811020  RH  025%=      5-min Rain = 0
KMD1 132127Z 08009KT 18/M02 A3023 RMK A01 T01811020  RH  025%=      5-min Rain = 0
KMD1 132128Z 09010KT 18/M02 A3023 RMK A01 T01811020  RH  025%=      5-min Rain = 0
KMD1 132129Z 09008KT 18/M02 A3023 RMK A01 T01801019  RH  026%=      5-min Rain = 0
KMD1 132130Z 10006KT 18/M02 A3023 RMK A01 T01791019  RH  026%=      5-min Rain = 0
KMD1 132131Z 10007KT 18/M02 A3023 RMK A01 T01791021  RH  026%=      5-min Rain = 0
KMD1 132132Z 09006KT 18/M02 A3023 RMK A01 T01791018  RH  026%=      5-min Rain = 0
KMD1 132133Z 10007KT 18/M02 A3023 RMK A01 T01801016  RH  026%=      5-min Rain = 0
KMD1 132134Z 08008KT 18/M02 A3023 RMK A01 T01811019  RH  026%=      5-min Rain = 0
KMD1 132135Z 06008KT 18/M02 A3023 RMK A01 T01811019  RH  026%=      5-min Rain = 0
KMD1 132136Z 05007KT 18/M02 A3023 RMK A01 T01821024  RH  025%=      5-min Rain = 0
KMD1 132137Z 06007KT 18/M02 A3023 RMK A01 T01811022  RH  025%=      5-min Rain = 0
KMD1 132138Z 09008KT 18/M02 A3023 RMK A01 T01811020  RH  025%=      5-min Rain = 0
KMD1 132139Z 09009KT 18/M02 A3023 RMK A01 T01811020  RH  025%=      5-min Rain = 0
KMD1 132140Z 09010KT 18/M02 A3023 RMK A01 T01811018  RH  026%=      5-min Rain = 0
KMD1 132141Z 09010KT 18/M02 A3023 RMK A01 T01821017  RH  026%=      5-min Rain = 0
KMD1 132142Z 09011KT 18/M02 A3023 RMK A01 T01821020  RH  025%=      5-min Rain = 0
KMD1 132143Z 09012KT 18/M02 A3023 RMK A01 T01811019  RH  026%=      5-min Rain = 0
KMD1 132144Z 08008KT 18/M02 A3023 RMK A01 T01811024  RH  025%=      5-min Rain = 0
KMD1 132145Z 09007KT 18/M02 A3023 RMK A01 T01801021  RH  025%=      5-min Rain = 0
KMD1 132146Z 08008KT 18/M02 A3023 RMK A01 T01811024  RH  025%=      5-min Rain = 0
KMD1 132147Z 08007KT 18/M02 A3023 RMK A01 T01821019  RH  025%=      5-min Rain = 0
KMD1 132148Z 08009KT 18/M02 A3023 RMK A01 T01841022  RH  025%=      5-min Rain = 0
KMD1 132149Z 08007KT 18/M02 A3023 RMK A01 T01831024  RH  024%=      5-min Rain = 0
KMD1 132150Z 08009KT 18/M02 A3023 RMK A01 T01831022  RH  025%=      5-min Rain = 0
KMD1 132151Z 06008KT 18/M02 A3023 RMK A01 T01831023  RH  025%=      5-min Rain = 0
KMD1 132152Z 05009KT 18/M03 A3023 RMK A01 T01831025  RH  024%=      5-min Rain = 0
KMD1 132153Z 03010KT 18/M02 A3023 RMK A01 T01831024  RH  024%=      5-min Rain = 0
KMD1 132154Z 03010KT 18/M03 A3023 RMK A01 T01821029  RH  024%=      5-min Rain = 0
KMD1 132155Z 03009KT 18/M03 A3023 RMK A01 T01801033  RH  023%=      5-min Rain = 0
KMD1 132156Z 03008KT 18/M03 A3023 RMK A01 T01791026  RH  025%=      5-min Rain = 0
KMD1 132157Z 03009KT 18/M03 A3023 RMK A01 T01801027  RH  024%=      5-min Rain = 0
KMD1 132158Z 06009KT 18/M02 A3023 RMK A01 T01811024  RH  025%=      5-min Rain = 0
KMD1 132159Z 06009KT 18/M02 A3023 RMK A01 T01821024  RH  024%=      5-min Rain = 0
KMD1 132200Z 06010KT 18/M02 A3023 RMK A01 T01831021  RH  025%=      5-min Rain = 0
KMD1 132201Z 05010KT 18/M02 A3023 RMK A01 T01841024  RH  024%=      5-min Rain = 0
KMD1 132202Z 06009KT 18/M03 A3023 RMK A01 T01841025  RH  024%=      5-min Rain = 0
KMD1 132203Z 06008KT 18/M02 A3023 RMK A01 T01831023  RH  025%=      5-min Rain = 0
KMD1 132204Z 07008KT 18/M02 A3023 RMK A01 T01811024  RH  025%=      5-min Rain = 0
KMD1 132205Z 07010KT 18/M03 A3023 RMK A01 T01821028  RH  024%=      5-min Rain = 0
KMD1 132206Z 06009KT 18/M03 A3023 RMK A01 T01811034  RH  023%=      5-min Rain = 0
KMD1 132207Z 05008KT 18/M03 A3023 RMK A01 T01801033  RH  023%=      5-min Rain = 0
KMD1 132208Z 07007KT 18/M03 A3023 RMK A01 T01801027  RH  024%=      5-min Rain = 0
KMD1 132209Z 08009KT 18/M02 A3023 RMK A01 T01821024  RH  024%=      5-min Rain = 0
KMD1 132210Z 09010KT 18/M03 A3023 RMK A01 T01831026  RH  024%=      5-min Rain = 0
KMD1 132211Z 09009KT 18/M03 A3023 RMK A01 T01821029  RH  024%=      5-min Rain = 0
KMD1 132212Z 09009KT 18/M03 A3023 RMK A01 T01801028  RH  024%=      5-min Rain = 0
KMD1 132213Z 10010KT 18/M03 A3023 RMK A01 T01821026  RH  024%=      5-min Rain = 0
KMD1 132214Z 10007KT 18/M03 A3023 RMK A01 T01831027  RH  024%=      5-min Rain = 0
KMD1 132215Z 06011KT 18/M03 A3023 RMK A01 T01831025  RH  024%=      5-min Rain = 0
KMD1 132216Z 06012KT 18/M03 A3023 RMK A01 T01841025  RH  024%=      5-min Rain = 0
KMD1 132217Z 05010KT 18/M03 A3023 RMK A01 T01831026  RH  024%=      5-min Rain = 0
KMD1 132218Z 05010KT 18/M03 A3023 RMK A01 T01831027  RH  024%=      5-min Rain = 0
KMD1 132219Z 05010KT 18/M03 A3023 RMK A01 T01821025  RH  024%=      5-min Rain = 0
KMD1 132220Z 06010KT 19/M02 A3023 RMK A01 T01851020  RH  025%=      5-min Rain = 0
KMD1 132221Z 08009KT 19/M02 A3023 RMK A01 T01891021  RH  024%=      5-min Rain = 0
KMD1 132222Z 08011KT 19/M02 A3022 RMK A01 T01901022  RH  024%=      5-min Rain = 0
KMD1 132223Z 08009KT 19/M03 A3022 RMK A01 T01891026  RH  023%=      5-min Rain = 0
KMD1 132224Z 08010KT 19/M03 A3023 RMK A01 T01861027  RH  023%=      5-min Rain = 0
KMD1 132225Z 07005KT 18/M03 A3022 RMK A01 T01831029  RH  023%=      5-min Rain = 0
KMD1 132226Z 10009KT 18/M03 A3022 RMK A01 T01821025  RH  024%=      5-min Rain = 0
KMD1 132227Z 10009KT 18/M02 A3022 RMK A01 T01831023  RH  024%=      5-min Rain = 0
KMD1 132228Z 08010KT 19/M02 A3022 RMK A01 T01851023  RH  024%=      5-min Rain = 0
KMD1 132229Z 05008KT 19/M03 A3022 RMK A01 T01851027  RH  024%=      5-min Rain = 0
KMD1 132230Z 05008KT 18/M03 A3022 RMK A01 T01841028  RH  023%=      5-min Rain = 0
KMD1 132231Z 04010KT 18/M03 A3022 RMK A01 T01841028  RH  024%=      5-min Rain = 0
KMD1 132232Z 05006KT 18/M03 A3022 RMK A01 T01821032  RH  023%=      5-min Rain = 0
KMD1 132233Z 06009KT 18/M03 A3022 RMK A01 T01801030  RH  024%=      5-min Rain = 0
KMD1 132234Z 05010KT 18/M03 A3023 RMK A01 T01801028  RH  024%=      5-min Rain = 0
KMD1 132235Z 06010KT 18/M03 A3023 RMK A01 T01781028  RH  024%=      5-min Rain = 0
KMD1 132236Z 05008KT 18/M03 A3023 RMK A01 T01761030  RH  024%=      5-min Rain = 0
KMD1 132237Z 04009KT 18/M03 A3023 RMK A01 T01751030  RH  024%=      5-min Rain = 0
KMD1 132238Z 07006KT 17/M03 A3022 RMK A01 T01741029  RH  025%=      5-min Rain = 0
KMD1 132239Z 09006KT 18/M03 A3022 RMK A01 T01751029  RH  025%=      5-min Rain = 0
KMD1 132240Z 10005KT 18/M03 A3022 RMK A01 T01751032  RH  024%=      5-min Rain = 0
KMD1 132241Z 12005KT 18/M03 A3022 RMK A01 T01751026  RH  025%=      5-min Rain = 0
KMD1 132242Z 12005KT 18/M03 A3022 RMK A01 T01771026  RH  025%=      5-min Rain = 0
KMD1 132243Z 10004KT 18/M03 A3022 RMK A01 T01781032  RH  024%=      5-min Rain = 0
KMD1 132244Z 07004KT 18/M03 A3022 RMK A01 T01781030  RH  024%=      5-min Rain = 0
KMD1 132245Z 03006KT 18/M02 A3022 RMK A01 T01791023  RH  025%=      5-min Rain = 0
KMD1 132246Z 03008KT 18/M02 A3022 RMK A01 T01821017  RH  026%=      5-min Rain = 0
KMD1 132247Z 04010KT 18/M02 A3022 RMK A01 T01821020  RH  025%=      5-min Rain = 0
KMD1 132248Z 05010KT 18/M02 A3022 RMK A01 T01811024  RH  025%=      5-min Rain = 0
KMD1 132249Z 05009KT 18/M02 A3022 RMK A01 T01801023  RH  025%=      5-min Rain = 0
KMD1 132250Z 06008KT 18/M02 A3022 RMK A01 T01801018  RH  026%=      5-min Rain = 0
KMD1 132251Z 07010KT 18/M02 A3022 RMK A01 T01821018  RH  026%=      5-min Rain = 0
KMD1 132252Z 05010KT 18/M02 A3022 RMK A01 T01831022  RH  025%=      5-min Rain = 0
KMD1 132253Z 04007KT 18/M02 A3022 RMK A01 T01821021  RH  025%=      5-min Rain = 0
KMD1 132254Z 04005KT 18/M02 A3022 RMK A01 T01831017  RH  026%=      5-min Rain = 0
KMD1 132255Z 04008KT 19/M02 A3022 RMK A01 T01851019  RH  025%=      5-min Rain = 0
KMD1 132256Z 06009KT 19/M02 A3022 RMK A01 T01851018  RH  025%=      5-min Rain = 0
KMD1 132257Z 07009KT 19/M02 A3022 RMK A01 T01851022  RH  024%=      5-min Rain = 0
KMD1 132258Z 05009KT 18/M02 A3022 RMK A01 T01841020  RH  025%=      5-min Rain = 0
KMD1 132259Z 05009KT 18/M02 A3022 RMK A01 T01831022  RH  025%=      5-min Rain = 0
KMD1 132300Z 05010KT 18/M02 A3022 RMK A01 T01831021  RH  025%=      5-min Rain = 0
KMD1 132301Z 06009KT 18/M02 A3022 RMK A01 T01831017  RH  026%=      5-min Rain = 0
KMD1 132302Z 07011KT 19/M02 A3022 RMK A01 T01851019  RH  025%=      5-min Rain = 0
KMD1 132303Z 06011KT 19/M02 A3022 RMK A01 T01861017  RH  025%=      5-min Rain = 0
KMD1 132304Z 06010KT 19/M02 A3022 RMK A01 T01851021  RH  025%=      5-min Rain = 0
KMD1 132305Z 06010KT 18/M02 A3022 RMK A01 T01831021  RH  025%=      5-min Rain = 0
KMD1 132306Z 07008KT 18/M02 A3022 RMK A01 T01821023  RH  025%=      5-min Rain = 0
KMD1 132307Z 08008KT 18/M02 A3022 RMK A01 T01801023  RH  025%=      5-min Rain = 0
KMD1 132308Z 08006KT 18/M02 A3022 RMK A01 T01791023  RH  025%=      5-min Rain = 0
KMD1 132309Z 08005KT 18/M02 A3022 RMK A01 T01791023  RH  025%=      5-min Rain = 0
KMD1 132310Z 09007KT 18/M02 A3022 RMK A01 T01791021  RH  026%=      5-min Rain = 0
KMD1 132311Z 08009KT 18/M02 A3022 RMK A01 T01791020  RH  026%=      5-min Rain = 0
KMD1 132312Z 05008KT 18/M02 A3022 RMK A01 T01801018  RH  026%=      5-min Rain = 0
KMD1 132313Z 05010KT 18/M02 A3022 RMK A01 T01811020  RH  025%=      5-min Rain = 0
KMD1 132314Z 05010KT 18/M02 A3022 RMK A01 T01811021  RH  025%=      5-min Rain = 0
KMD1 132315Z 06011KT 18/M02 A3022 RMK A01 T01811019  RH  026%=      5-min Rain = 0
KMD1 132316Z 05009KT 18/M02 A3022 RMK A01 T01801020  RH  025%=      5-min Rain = 0
KMD1 132317Z 04008KT 18/M02 A3022 RMK A01 T01791022  RH  025%=      5-min Rain = 0
KMD1 132318Z 05007KT 18/M02 A3021 RMK A01 T01781021  RH  026%=      5-min Rain = 0
KMD1 132319Z 05008KT 18/M02 A3021 RMK A01 T01781022  RH  025%=      5-min Rain = 0
KMD1 132320Z 04008KT 18/M02 A3021 RMK A01 T01781022  RH  026%=      5-min Rain = 0
KMD1 132321Z 06007KT 18/M02 A3022 RMK A01 T01781019  RH  026%=      5-min Rain = 0
KMD1 132322Z 06010KT 18/M02 A3022 RMK A01 T01791019  RH  026%=      5-min Rain = 0
KMD1 132323Z 06009KT 18/M02 A3022 RMK A01 T01791021  RH  026%=      5-min Rain = 0
KMD1 132324Z 06011KT 18/M02 A3022 RMK A01 T01781019  RH  026%=      5-min Rain = 0
KMD1 132325Z 06011KT 18/M02 A3022 RMK A01 T01781021  RH  026%=      5-min Rain = 0
KMD1 132326Z 06009KT 18/M02 A3022 RMK A01 T01781021  RH  026%=      5-min Rain = 0
KMD1 132327Z 07007KT 18/M02 A3022 RMK A01 T01771024  RH  025%=      5-min Rain = 0
KMD1 132328Z 05007KT 18/M02 A3022 RMK A01 T01761020  RH  026%=      5-min Rain = 0
KMD1 132329Z 04007KT 18/M02 A3022 RMK A01 T01761022  RH  026%=      5-min Rain = 0
KMD1 132330Z 04007KT 18/M02 A3022 RMK A01 T01761020  RH  026%=      5-min Rain = 0
KMD1 132331Z 03006KT 18/M02 A3022 RMK A01 T01761022  RH  026%=      5-min Rain = 0
KMD1 132332Z 04010KT 18/M02 A3022 RMK A01 T01761019  RH  026%=      5-min Rain = 0
KMD1 132333Z 05008KT 18/M02 A3023 RMK A01 T01761020  RH  026%=      5-min Rain = 0
KMD1 132334Z 08007KT 18/M02 A3023 RMK A01 T01761018  RH  027%=      5-min Rain = 0
KMD1 132335Z 08010KT 18/M02 A3023 RMK A01 T01761018  RH  027%=      5-min Rain = 0
KMD1 132336Z 08010KT 18/M02 A3023 RMK A01 T01761018  RH  027%=      5-min Rain = 0
KMD1 132337Z 08009KT 18/M02 A3023 RMK A01 T01751019  RH  027%=      5-min Rain = 0
KMD1 132338Z 08009KT 18/M02 A3023 RMK A01 T01751020  RH  026%=      5-min Rain = 0
KMD1 132339Z 07006KT 18/M02 A3023 RMK A01 T01751020  RH  026%=      5-min Rain = 0
KMD1 132340Z 08007KT 17/M02 A3023 RMK A01 T01741019  RH  027%=      5-min Rain = 0
KMD1 132341Z 07008KT 17/M02 A3023 RMK A01 T01741022  RH  026%=      5-min Rain = 0
KMD1 132342Z 06009KT 17/M02 A3023 RMK A01 T01741022  RH  026%=      5-min Rain = 0
KMD1 132343Z 06008KT 17/M02 A3023 RMK A01 T01741020  RH  027%=      5-min Rain = 0
KMD1 132344Z 05007KT 17/M02 A3023 RMK A01 T01741021  RH  026%=      5-min Rain = 0
KMD1 132345Z 06005KT 17/M02 A3023 RMK A01 T01741021  RH  026%=      5-min Rain = 0
KMD1 132346Z 07008KT 17/M02 A3023 RMK A01 T01741020  RH  027%=      5-min Rain = 0
KMD1 132347Z 07008KT 17/M02 A3023 RMK A01 T01731020  RH  027%=      5-min Rain = 0
KMD1 132348Z 08009KT 17/M02 A3023 RMK A01 T01731020  RH  027%=      5-min Rain = 0
KMD1 132349Z 08008KT 17/M02 A3022 RMK A01 T01711023  RH  026%=      5-min Rain = 0
KMD1 132350Z 07008KT 17/M02 A3022 RMK A01 T01701024  RH  026%=      5-min Rain = 0
KMD1 132351Z 07007KT 17/M02 A3023 RMK A01 T01691023  RH  027%=      5-min Rain = 0
KMD1 132352Z 05007KT 17/M02 A3023 RMK A01 T01691021  RH  027%=      5-min Rain = 0
KMD1 132353Z 05006KT 17/M03 A3023 RMK A01 T01681025  RH  027%=      5-min Rain = 0
KMD1 132354Z 06006KT 17/M02 A3022 RMK A01 T01681024  RH  027%=      5-min Rain = 0
KMD1 132355Z 07008KT 17/M02 A3023 RMK A01 T01681024  RH  027%=      5-min Rain = 0
KMD1 132356Z 07008KT 17/M02 A3023 RMK A01 T01681021  RH  027%=      5-min Rain = 0
KMD1 132357Z 06008KT 17/M02 A3023 RMK A01 T01681024  RH  027%=      5-min Rain = 0
KMD1 132358Z 05008KT 17/M03 A3023 RMK A01 T01681025  RH  026%=      5-min Rain = 0
KMD1 132359Z 06007KT 17/M03 A3023 RMK A01 T01691025  RH  026%=      5-min Rain = 0
KMD1 140000Z 07007KT 17/M02 A3023 RMK A01 T01701022  RH  027%=      5-min Rain = 0
KMD1 140001Z 08008KT 17/M02 A3023 RMK A01 T01701024  RH  027%=      5-min Rain = 0
KMD1 140002Z 07008KT 17/M02 A3023 RMK A01 T01691024  RH  027%=      5-min Rain = 0
KMD1 140003Z 06006KT 17/M02 A3023 RMK A01 T01701024  RH  027%=      5-min Rain = 0
KMD1 140004Z 06008KT 17/M02 A3023 RMK A01 T01691024  RH  027%=      5-min Rain = 0
KMD1 140005Z 06007KT 17/M03 A3023 RMK A01 T01691027  RH  026%=      5-min Rain = 0
KMD1 140006Z 05006KT 17/M03 A3023 RMK A01 T01691025  RH  027%=      5-min Rain = 0
KMD1 140007Z 05007KT 17/M03 A3023 RMK A01 T01691025  RH  026%=      5-min Rain = 0
KMD1 140008Z 06006KT 17/M02 A3023 RMK A01 T01681024  RH  027%=      5-min Rain = 0
KMD1 140009Z 06008KT 17/M03 A3023 RMK A01 T01691026  RH  026%=      5-min Rain = 0
KMD1 140010Z 05007KT 17/M03 A3023 RMK A01 T01681027  RH  026%=      5-min Rain = 0
KMD1 140011Z 06008KT 17/M03 A3023 RMK A01 T01681027  RH  026%=      5-min Rain = 0
KMD1 140012Z 06007KT 17/M03 A3022 RMK A01 T01681027  RH  026%=      5-min Rain = 0
KMD1 140013Z 07006KT 17/M03 A3022 RMK A01 T01681025  RH  027%=      5-min Rain = 0
KMD1 140014Z 07008KT 17/M03 A3023 RMK A01 T01671026  RH  027%=      5-min Rain = 0
KMD1 140015Z 08007KT 17/M03 A3023 RMK A01 T01671027  RH  026%=      5-min Rain = 0
KMD1 140016Z 08008KT 17/M03 A3023 RMK A01 T01661026  RH  027%=      5-min Rain = 0
KMD1 140017Z 07007KT 17/M03 A3023 RMK A01 T01661027  RH  027%=      5-min Rain = 0
KMD1 140018Z 08007KT 17/M03 A3023 RMK A01 T01661027  RH  027%=      5-min Rain = 0
KMD1 140019Z 08007KT 17/M03 A3023 RMK A01 T01651027  RH  027%=      5-min Rain = 0
KMD1 140020Z 08009KT 16/M03 A3023 RMK A01 T01641026  RH  027%=      5-min Rain = 0
KMD1 140021Z 08008KT 16/M03 A3023 RMK A01 T01641028  RH  027%=      5-min Rain = 0
KMD1 140022Z 08008KT 16/M03 A3023 RMK A01 T01631026  RH  027%=      5-min Rain = 0
KMD1 140023Z 08007KT 16/M03 A3023 RMK A01 T01631027  RH  027%=      5-min Rain = 0
KMD1 140024Z 08007KT 16/M03 A3023 RMK A01 T01621027  RH  027%=      5-min Rain = 0
KMD1 140025Z 08008KT 16/M03 A3023 RMK A01 T01631028  RH  027%=      5-min Rain = 0
KMD1 140026Z 07007KT 16/M03 A3023 RMK A01 T01621028  RH  027%=      5-min Rain = 0
KMD1 140027Z 07007KT 16/M03 A3023 RMK A01 T01621029  RH  027%=      5-min Rain = 0
KMD1 140028Z 07007KT 16/M03 A3023 RMK A01 T01611028  RH  027%=      5-min Rain = 0
KMD1 140029Z 07006KT 16/M03 A3023 RMK A01 T01611029  RH  027%=      5-min Rain = 0
KMD1 140030Z 07006KT 16/M03 A3023 RMK A01 T01601028  RH  027%=      5-min Rain = 0
KMD1 140031Z 07005KT 16/M03 A3023 RMK A01 T01591026  RH  028%=      5-min Rain = 0
KMD1 140032Z 07005KT 16/M03 A3023 RMK A01 T01571026  RH  028%=      5-min Rain = 0
KMD1 140033Z 07005KT 16/M03 A3023 RMK A01 T01571027  RH  028%=      5-min Rain = 0
KMD1 140034Z 07004KT 16/M03 A3023 RMK A01 T01571026  RH  028%=      5-min Rain = 0
KMD1 140035Z 07004KT 16/M03 A3023 RMK A01 T01561026  RH  029%=      5-min Rain = 0
KMD1 140036Z 06004KT 16/M03 A3024 RMK A01 T01551026  RH  029%=      5-min Rain = 0
KMD1 140037Z 06003KT 16/M03 A3024 RMK A01 T01551026  RH  029%=      5-min Rain = 0
KMD1 140038Z 06004KT 15/M03 A3024 RMK A01 T01541026  RH  029%=      5-min Rain = 0
KMD1 140039Z 06004KT 15/M03 A3024 RMK A01 T01541026  RH  029%=      5-min Rain = 0
KMD1 140040Z 06004KT 15/M03 A3024 RMK A01 T01541027  RH  029%=      5-min Rain = 0
KMD1 140041Z 06004KT 15/M03 A3024 RMK A01 T01541028  RH  029%=      5-min Rain = 0
KMD1 140042Z 07004KT 15/M03 A3024 RMK A01 T01541028  RH  029%=      5-min Rain = 0
KMD1 140043Z 07005KT 15/M03 A3024 RMK A01 T01541027  RH  029%=      5-min Rain = 0
KMD1 140044Z 07006KT 15/M03 A3024 RMK A01 T01521027  RH  029%=      5-min Rain = 0
KMD1 140045Z 07005KT 15/M03 A3024 RMK A01 T01511025  RH  030%=      5-min Rain = 0
KMD1 140046Z 07005KT 15/M03 A3024 RMK A01 T01501025  RH  030%=      5-min Rain = 0
KMD1 140047Z 07005KT 15/M03 A3024 RMK A01 T01491025  RH  030%=      5-min Rain = 0
KMD1 140048Z 08005KT 15/M02 A3024 RMK A01 T01481024  RH  030%=      5-min Rain = 0
KMD1 140049Z 08005KT 15/M02 A3024 RMK A01 T01461024  RH  031%=      5-min Rain = 0
KMD1 140050Z 08005KT 15/M02 A3023 RMK A01 T01451023  RH  031%=      5-min Rain = 0
KMD1 140051Z 08004KT 14/M02 A3023 RMK A01 T01441023  RH  032%=      5-min Rain = 0
KMD1 140052Z 09004KT 14/M02 A3023 RMK A01 T01421022  RH  032%=      5-min Rain = 0
KMD1 140053Z 09004KT 14/M02 A3024 RMK A01 T01421023  RH  032%=      5-min Rain = 0
KMD1 140054Z 09004KT 14/M02 A3024 RMK A01 T01411023  RH  032%=      5-min Rain = 0
KMD1 140055Z 09004KT 14/M02 A3024 RMK A01 T01411024  RH  032%=      5-min Rain = 0
KMD1 140056Z 09004KT 14/M02 A3024 RMK A01 T01421024  RH  032%=      5-min Rain = 0
KMD1 140057Z 09004KT 14/M03 A3024 RMK A01 T01421025  RH  031%=      5-min Rain = 0
KMD1 140058Z 09004KT 14/M02 A3024 RMK A01 T01431024  RH  031%=      5-min Rain = 0
KMD1 140059Z 09003KT 14/M02 A3024 RMK A01 T01421024  RH  032%=      5-min Rain = 0
KMD1 140100Z 09003KT 14/M02 A3024 RMK A01 T01411024  RH  032%=      5-min Rain = 0
KMD1 140101Z 09003KT 14/M03 A3024 RMK A01 T01411025  RH  032%=      5-min Rain = 0
KMD1 140102Z 10003KT 14/M03 A3024 RMK A01 T01421025  RH  031%=      5-min Rain = 0
KMD1 140103Z 09003KT 14/M03 A3024 RMK A01 T01431025  RH  031%=      5-min Rain = 0
KMD1 140104Z 09003KT 14/M03 A3024 RMK A01 T01431025  RH  031%=      5-min Rain = 0
KMD1 140105Z 09003KT 14/M02 A3024 RMK A01 T01431024  RH  031%=      5-min Rain = 0
KMD1 140106Z 09003KT 14/M02 A3024 RMK A01 T01431024  RH  031%=      5-min Rain = 0
KMD1 140107Z 08003KT 14/M03 A3024 RMK A01 T01441025  RH  031%=      5-min Rain = 0
KMD1 140108Z 07003KT 14/M02 A3024 RMK A01 T01431024  RH  031%=      5-min Rain = 0
KMD1 140109Z 07003KT 14/M02 A3025 RMK A01 T01431024  RH  032%=      5-min Rain = 0
KMD1 140110Z 09003KT 14/M02 A3025 RMK A01 T01431024  RH  031%=      5-min Rain = 0
KMD1 140111Z 09002KT 14/M02 A3025 RMK A01 T01431024  RH  031%=      5-min Rain = 0
KMD1 140112Z 09002KT 14/M02 A3025 RMK A01 T01431024  RH  032%=      5-min Rain = 0
KMD1 140113Z 08002KT 14/M02 A3025 RMK A01 T01431024  RH  032%=      5-min Rain = 0
KMD1 140114Z 07002KT 14/M02 A3025 RMK A01 T01421024  RH  032%=      5-min Rain = 0
KMD1 140115Z 08003KT 14/M03 A3025 RMK A01 T01421025  RH  032%=      5-min Rain = 0
KMD1 140116Z 09003KT 14/M03 A3025 RMK A01 T01421025  RH  031%=      5-min Rain = 0
KMD1 140117Z 09003KT 14/M03 A3025 RMK A01 T01411025  RH  031%=      5-min Rain = 0
KMD1 140118Z 09003KT 14/M03 A3025 RMK A01 T01411025  RH  032%=      5-min Rain = 0
KMD1 140119Z 08003KT 14/M03 A3025 RMK A01 T01411025  RH  032%=      5-min Rain = 0
KMD1 140120Z 09003KT 14/M03 A3025 RMK A01 T01411025  RH  032%=      5-min Rain = 0
KMD1 140121Z 09003KT 14/M03 A3025 RMK A01 T01411025  RH  032%=      5-min Rain = 0
KMD1 140122Z 10003KT 14/M02 A3025 RMK A01 T01411024  RH  032%=      5-min Rain = 0
KMD1 140123Z 10003KT 14/M02 A3025 RMK A01 T01401024  RH  032%=      5-min Rain = 0
KMD1 140124Z 10003KT 14/M02 A3025 RMK A01 T01401024  RH  032%=      5-min Rain = 0
KMD1 140125Z 08002KT 14/M02 A3025 RMK A01 T01381021  RH  033%=      5-min Rain = 0
KMD1 140126Z 07002KT 14/M02 A3025 RMK A01 T01361024  RH  033%=      5-min Rain = 0
KMD1 140127Z 07002KT 14/M02 A3025 RMK A01 T01361024  RH  033%=      5-min Rain = 0
KMD1 140128Z 07003KT 14/M02 A3025 RMK A01 T01361024  RH  033%=      5-min Rain = 0
KMD1 140129Z 07003KT 14/M02 A3025 RMK A01 T01361024  RH  033%=      5-min Rain = 0
KMD1 140130Z 07003KT 14/M02 A3025 RMK A01 T01371023  RH  033%=      5-min Rain = 0
KMD1 140131Z 07003KT 14/M02 A3025 RMK A01 T01361023  RH  033%=      5-min Rain = 0
KMD1 140132Z 07003KT 14/M02 A3025 RMK A01 T01361023  RH  033%=      5-min Rain = 0
KMD1 140133Z 07004KT 14/M02 A3025 RMK A01 T01351023  RH  033%=      5-min Rain = 0
KMD1 140134Z 08004KT 13/M02 A3025 RMK A01 T01341023  RH  033%=      5-min Rain = 0
KMD1 140135Z 08004KT 13/M02 A3025 RMK A01 T01341023  RH  034%=      5-min Rain = 0
KMD1 140136Z 08004KT 13/M02 A3025 RMK A01 T01331023  RH  034%=      5-min Rain = 0
KMD1 140137Z 08004KT 13/M02 A3025 RMK A01 T01331024  RH  034%=      5-min Rain = 0
KMD1 140138Z 08004KT 13/M02 A3025 RMK A01 T01331024  RH  034%=      5-min Rain = 0
KMD1 140139Z 08003KT 13/M02 A3026 RMK A01 T01331023  RH  034%=      5-min Rain = 0
KMD1 140140Z 08003KT 13/M02 A3026 RMK A01 T01321022  RH  034%=      5-min Rain = 0
KMD1 140141Z 08003KT 13/M02 A3026 RMK A01 T01321022  RH  034%=      5-min Rain = 0
KMD1 140142Z 08002KT 13/M02 A3026 RMK A01 T01311021  RH  035%=      5-min Rain = 0
KMD1 140143Z 08002KT 13/M02 A3026 RMK A01 T01301021  RH  035%=      5-min Rain = 0
KMD1 140144Z 08002KT 13/M02 A3026 RMK A01 T01301021  RH  035%=      5-min Rain = 0
KMD1 140145Z 08002KT 13/M02 A3026 RMK A01 T01291020  RH  035%=      5-min Rain = 0
KMD1 140146Z 08002KT 13/M02 A3026 RMK A01 T01291020  RH  035%=      5-min Rain = 0
KMD1 140147Z 08002KT 13/M02 A3026 RMK A01 T01281021  RH  035%=      5-min Rain = 0
KMD1 140148Z 07002KT 13/M02 A3026 RMK A01 T01281021  RH  036%=      5-min Rain = 0
KMD1 140149Z 06002KT 13/M02 A3026 RMK A01 T01281020  RH  036%=      5-min Rain = 0
KMD1 140150Z 05002KT 13/M02 A3026 RMK A01 T01271020  RH  036%=      5-min Rain = 0
KMD1 140151Z 03002KT 13/M02 A3027 RMK A01 T01271020  RH  036%=      5-min Rain = 0
KMD1 140152Z 04002KT 13/M02 A3027 RMK A01 T01251016  RH  037%=      5-min Rain = 0
KMD1 140153Z 05002KT 12/M02 A3027 RMK A01 T01231016  RH  038%=      5-min Rain = 0
KMD1 140154Z 05002KT 12/M02 A3027 RMK A01 T01211017  RH  038%=      5-min Rain = 0
KMD1 140155Z 04002KT 12/M02 A3027 RMK A01 T01201017  RH  038%=      5-min Rain = 0
KMD1 140156Z 04002KT 12/M01 A3027 RMK A01 T01191012  RH  040%=      5-min Rain = 0
KMD1 140157Z 04002KT 12/M01 A3027 RMK A01 T01151013  RH  041%=      5-min Rain = 0
KMD1 140158Z 05002KT 11/M02 A3027 RMK A01 T01131015  RH  041%=      5-min Rain = 0
KMD1 140159Z 05003KT 11/M02 A3027 RMK A01 T01131017  RH  040%=      5-min Rain = 0
KMD1 140200Z 05003KT 11/M02 A3027 RMK A01 T01141019  RH  039%=      5-min Rain = 0
KMD1 140201Z 05003KT 12/M02 A3027 RMK A01 T01161016  RH  040%=      5-min Rain = 0
KMD1 140202Z 05002KT 12/M02 A3027 RMK A01 T01161016  RH  040%=      5-min Rain = 0
KMD1 140203Z 05003KT 12/M02 A3027 RMK A01 T01151016  RH  040%=      5-min Rain = 0
KMD1 140204Z 04003KT 11/M02 A3027 RMK A01 T01131016  RH  041%=      5-min Rain = 0
KMD1 140205Z 04003KT 11/M02 A3027 RMK A01 T01101015  RH  042%=      5-min Rain = 0
KMD1 140206Z 04003KT 11/M01 A3027 RMK A01 T01071013  RH  043%=      5-min Rain = 0
KMD1 140207Z 05003KT 11/M01 A3027 RMK A01 T01051012  RH  044%=      5-min Rain = 0
KMD1 140208Z 05003KT 10/M02 A3027 RMK A01 T01041016  RH  043%=      5-min Rain = 0
KMD1 140209Z 05003KT 10/M02 A3027 RMK A01 T01041018  RH  043%=      5-min Rain = 0
KMD1 140210Z 03004KT 10/M02 A3027 RMK A01 T01031016  RH  043%=      5-min Rain = 0
KMD1 140211Z 04004KT 10/M01 A3027 RMK A01 T01031013  RH  044%=      5-min Rain = 0
KMD1 140212Z 05004KT 10/M01 A3027 RMK A01 T01031014  RH  044%=      5-min Rain = 0
KMD1 140213Z 05004KT 10/M02 A3028 RMK A01 T01031018  RH  043%=      5-min Rain = 0
KMD1 140214Z 06004KT 11/M02 A3028 RMK A01 T01051020  RH  041%=      5-min Rain = 0
KMD1 140215Z 05004KT 11/M02 A3028 RMK A01 T01081019  RH  041%=      5-min Rain = 0
KMD1 140216Z 05004KT 11/M02 A3028 RMK A01 T01091018  RH  041%=      5-min Rain = 0
KMD1 140217Z 05004KT 11/M02 A3028 RMK A01 T01091018  RH  041%=      5-min Rain = 0
KMD1 140218Z 05004KT 11/M02 A3028 RMK A01 T01091017  RH  041%=      5-min Rain = 0
KMD1 140219Z 06004KT 11/M02 A3028 RMK A01 T01091017  RH  041%=      5-min Rain = 0
KMD1 140220Z 06004KT 11/M02 A3028 RMK A01 T01091018  RH  041%=      5-min Rain = 0
KMD1 140221Z 06004KT 11/M02 A3027 RMK A01 T01091017  RH  041%=      5-min Rain = 0
KMD1 140222Z 07004KT 11/M02 A3028 RMK A01 T01091017  RH  041%=      5-min Rain = 0
KMD1 140223Z 06004KT 11/M02 A3028 RMK A01 T01091017  RH  041%=      5-min Rain = 0
KMD1 140224Z 06004KT 11/M02 A3028 RMK A01 T01081016  RH  042%=      5-min Rain = 0
KMD1 140225Z 07004KT 11/M02 A3028 RMK A01 T01081017  RH  042%=      5-min Rain = 0
KMD1 140226Z 06004KT 11/M02 A3028 RMK A01 T01081017  RH  042%=      5-min Rain = 0
KMD1 140227Z 06004KT 11/M02 A3028 RMK A01 T01081018  RH  042%=      5-min Rain = 0
KMD1 140228Z 06004KT 11/M02 A3028 RMK A01 T01081017  RH  042%=      5-min Rain = 0
KMD1 140229Z 06004KT 11/M02 A3028 RMK A01 T01081017  RH  042%=      5-min Rain = 0
KMD1 140230Z 07004KT 11/M02 A3028 RMK A01 T01081018  RH  041%=      5-min Rain = 0
KMD1 140231Z 06003KT 11/M02 A3028 RMK A01 T01081019  RH  041%=      5-min Rain = 0
KMD1 140232Z 07004KT 11/M02 A3028 RMK A01 T01081018  RH  041%=      5-min Rain = 0
KMD1 140233Z 07003KT 11/M02 A3028 RMK A01 T01081018  RH  041%=      5-min Rain = 0
KMD1 140234Z 07003KT 11/M02 A3028 RMK A01 T01081018  RH  041%=      5-min Rain = 0
KMD1 140235Z 08003KT 11/M02 A3028 RMK A01 T01081018  RH  041%=      5-min Rain = 0
KMD1 140236Z 08003KT 11/M02 A3028 RMK A01 T01081019  RH  041%=      5-min Rain = 0
KMD1 140237Z 08002KT 11/M02 A3028 RMK A01 T01091017  RH  041%=      5-min Rain = 0
KMD1 140238Z 09003KT 11/M02 A3028 RMK A01 T01081017  RH  042%=      5-min Rain = 0
KMD1 140239Z 08002KT 11/M02 A3028 RMK A01 T01081017  RH  042%=      5-min Rain = 0
KMD1 140240Z 08003KT 11/M02 A3028 RMK A01 T01071019  RH  041%=      5-min Rain = 0
KMD1 140241Z 08003KT 11/M02 A3028 RMK A01 T01081020  RH  041%=      5-min Rain = 0
KMD1 140242Z 07003KT 11/M02 A3028 RMK A01 T01081021  RH  040%=      5-min Rain = 0
KMD1 140243Z 06003KT 11/M02 A3028 RMK A01 T01091021  RH  040%=      5-min Rain = 0
KMD1 140244Z 07003KT 11/M02 A3028 RMK A01 T01091021  RH  040%=      5-min Rain = 0
KMD1 140245Z 07003KT 11/M02 A3028 RMK A01 T01101022  RH  040%=      5-min Rain = 0
KMD1 140246Z 07003KT 11/M02 A3028 RMK A01 T01091022  RH  040%=      5-min Rain = 0
KMD1 140247Z 07004KT 11/M02 A3028 RMK A01 T01081021  RH  040%=      5-min Rain = 0
KMD1 140248Z 07004KT 11/M02 A3028 RMK A01 T01061019  RH  041%=      5-min Rain = 0
KMD1 140249Z 07003KT 10/M02 A3028 RMK A01 T01041019  RH  042%=      5-min Rain = 0
KMD1 140250Z 07003KT 10/M02 A3028 RMK A01 T01031019  RH  042%=      5-min Rain = 0
KMD1 140251Z 08003KT 10/M02 A3028 RMK A01 T01021016  RH  044%=      5-min Rain = 0
KMD1 140252Z 08003KT 10/M01 A3028 RMK A01 T01001013  RH  045%=      5-min Rain = 0
KMD1 140253Z 08003KT 10/M01 A3028 RMK A01 T00981011  RH  047%=      5-min Rain = 0
KMD1 140254Z 08003KT 10/M01 A3028 RMK A01 T00961012  RH  047%=      5-min Rain = 0
KMD1 140255Z 07003KT 09/M01 A3028 RMK A01 T00941012  RH  047%=      5-min Rain = 0
KMD1 140256Z 07003KT 09/M01 A3028 RMK A01 T00931013  RH  048%=      5-min Rain = 0
KMD1 140257Z 07004KT 09/M01 A3028 RMK A01 T00931013  RH  047%=      5-min Rain = 0
KMD1 140258Z 07004KT 09/M01 A3028 RMK A01 T00931014  RH  047%=      5-min Rain = 0
KMD1 140259Z 07004KT 09/M02 A3028 RMK A01 T00931015  RH  047%=      5-min Rain = 0
KMD1 140300Z 07004KT 10/M02 A3028 RMK A01 T00951017  RH  046%=      5-min Rain = 0
KMD1 140301Z 07004KT 10/M02 A3028 RMK A01 T00961019  RH  044%=      5-min Rain = 0
KMD1 140302Z 07004KT 10/M02 A3028 RMK A01 T00981019  RH  044%=      5-min Rain = 0
KMD1 140303Z 07004KT 10/M02 A3028 RMK A01 T00991020  RH  043%=      5-min Rain = 0
KMD1 140304Z 08004KT 10/M02 A3028 RMK A01 T01001019  RH  043%=      5-min Rain = 0
KMD1 140305Z 08004KT 10/M02 A3028 RMK A01 T00991020  RH  043%=      5-min Rain = 0
KMD1 140306Z 08004KT 10/M02 A3028 RMK A01 T01001020  RH  043%=      5-min Rain = 0
KMD1 140307Z 08004KT 10/M02 A3028 RMK A01 T01011021  RH  043%=      5-min Rain = 0
KMD1 140308Z 07004KT 10/M02 A3028 RMK A01 T01011020  RH  043%=      5-min Rain = 0
KMD1 140309Z 07004KT 10/M02 A3029 RMK A01 T01001019  RH  043%=      5-min Rain = 0
KMD1 140310Z 07004KT 10/M02 A3029 RMK A01 T00991019  RH  044%=      5-min Rain = 0
KMD1 140311Z 07004KT 10/M02 A3029 RMK A01 T00971018  RH  044%=      5-min Rain = 0
KMD1 140312Z 07004KT 10/M02 A3029 RMK A01 T00961019  RH  044%=      5-min Rain = 0
KMD1 140313Z 07004KT 10/M02 A3029 RMK A01 T00951019  RH  045%=      5-min Rain = 0
KMD1 140314Z 07004KT 10/M02 A3029 RMK A01 T00951019  RH  045%=      5-min Rain = 0
KMD1 140315Z 07004KT 10/M02 A3029 RMK A01 T00951021  RH  044%=      5-min Rain = 0
KMD1 140316Z 07004KT 10/M02 A3029 RMK A01 T00961020  RH  044%=      5-min Rain = 0
KMD1 140317Z 07004KT 10/M02 A3029 RMK A01 T00961019  RH  044%=      5-min Rain = 0
KMD1 140318Z 06004KT 10/M02 A303 RMK A01 T00961018  RH  045%=      5-min Rain = 0
KMD1 140319Z 06004KT 10/M02 A303 RMK A01 T00961019  RH  045%=      5-min Rain = 0
KMD1 140320Z 06003KT 10/M02 A303 RMK A01 T00961019  RH  045%=      5-min Rain = 0
KMD1 140321Z 06003KT 10/M02 A303 RMK A01 T00971019  RH  044%=      5-min Rain = 0
KMD1 140322Z 06003KT 10/M02 A303 RMK A01 T00971019  RH  044%=      5-min Rain = 0
KMD1 140323Z 05004KT 10/M02 A303 RMK A01 T00981019  RH  044%=      5-min Rain = 0
KMD1 140324Z 05004KT 10/M02 A303 RMK A01 T00981019  RH  044%=      5-min Rain = 0
KMD1 140325Z 05004KT 10/M02 A303 RMK A01 T00971018  RH  045%=      5-min Rain = 0
KMD1 140326Z 04004KT 10/M02 A303 RMK A01 T00951017  RH  046%=      5-min Rain = 0
KMD1 140327Z 05004KT 09/M02 A303 RMK A01 T00921017  RH  047%=      5-min Rain = 0
KMD1 140328Z 05004KT 09/M02 A303 RMK A01 T00891018  RH  047%=      5-min Rain = 0
KMD1 140329Z 05004KT 09/M02 A303 RMK A01 T00881018  RH  047%=      5-min Rain = 0
KMD1 140330Z 05004KT 09/M02 A303 RMK A01 T00871018  RH  048%=      5-min Rain = 0
KMD1 140331Z 05004KT 09/M02 A303 RMK A01 T00871018  RH  048%=      5-min Rain = 0
KMD1 140332Z 04004KT 09/M02 A303 RMK A01 T00871018  RH  048%=      5-min Rain = 0
KMD1 140333Z 04005KT 09/M02 A303 RMK A01 T00871018  RH  048%=      5-min Rain = 0
KMD1 140334Z 05005KT 09/M02 A303 RMK A01 T00871017  RH  048%=      5-min Rain = 0
KMD1 140335Z 05005KT 09/M02 A303 RMK A01 T00861017  RH  048%=      5-min Rain = 0
KMD1 140336Z 05004KT 09/M02 A303 RMK A01 T00861018  RH  048%=      5-min Rain = 0
KMD1 140337Z 04004KT 09/M02 A303 RMK A01 T00861017  RH  048%=      5-min Rain = 0
KMD1 140338Z 04004KT 09/M02 A303 RMK A01 T00861018  RH  048%=      5-min Rain = 0
KMD1 140339Z 04004KT 09/M02 A303 RMK A01 T00861019  RH  048%=      5-min Rain = 0
KMD1 140340Z 04004KT 09/M02 A303 RMK A01 T00871018  RH  048%=      5-min Rain = 0
KMD1 140341Z 04004KT 09/M02 A303 RMK A01 T00861018  RH  048%=      5-min Rain = 0
KMD1 140342Z 04004KT 08/M02 A303 RMK A01 T00841017  RH  049%=      5-min Rain = 0
KMD1 140343Z 04004KT 08/M02 A303 RMK A01 T00811017  RH  050%=      5-min Rain = 0
KMD1 140344Z 04004KT 08/M02 A303 RMK A01 T00781017  RH  051%=      5-min Rain = 0
KMD1 140345Z 04004KT 08/M02 A303 RMK A01 T00751017  RH  052%=      5-min Rain = 0
KMD1 140346Z 04004KT 07/M02 A303 RMK A01 T00731017  RH  053%=      5-min Rain = 0
KMD1 140347Z 05004KT 07/M02 A303 RMK A01 T00711016  RH  054%=      5-min Rain = 0
KMD1 140348Z 04004KT 07/M02 A303 RMK A01 T00701017  RH  054%=      5-min Rain = 0
KMD1 140349Z 04003KT 07/M02 A303 RMK A01 T00691016  RH  055%=      5-min Rain = 0
KMD1 140350Z 04003KT 07/M02 A303 RMK A01 T00691016  RH  055%=      5-min Rain = 0
KMD1 140351Z 05003KT 07/M02 A303 RMK A01 T00681016  RH  055%=      5-min Rain = 0
KMD1 140352Z 05003KT 07/M02 A303 RMK A01 T00691017  RH  054%=      5-min Rain = 0
KMD1 140353Z 04003KT 07/M02 A303 RMK A01 T00701018  RH  054%=      5-min Rain = 0
KMD1 140354Z 04003KT 07/M02 A303 RMK A01 T00711018  RH  053%=      5-min Rain = 0
KMD1 140355Z 04003KT 07/M02 A303 RMK A01 T00731018  RH  052%=      5-min Rain = 0
KMD1 140356Z 04003KT 07/M02 A303 RMK A01 T00741018  RH  052%=      5-min Rain = 0
KMD1 140357Z 05003KT 08/M02 A303 RMK A01 T00751018  RH  051%=      5-min Rain = 0
KMD1 140358Z 04003KT 08/M02 A303 RMK A01 T00761018  RH  052%=      5-min Rain = 0
KMD1 140359Z 04003KT 08/M02 A303 RMK A01 T00751018  RH  052%=      5-min Rain = 0
KMD1 140400Z 05002KT 07/M02 A303 RMK A01 T00741018  RH  052%=      5-min Rain = 0
KMD1 140401Z 06002KT 07/M02 A303 RMK A01 T00731019  RH  052%=      5-min Rain = 0
KMD1 140402Z 08002KT 07/M02 A303 RMK A01 T00731020  RH  052%=      5-min Rain = 0
KMD1 140403Z 08001KT 07/M02 A303 RMK A01 T00741021  RH  051%=      5-min Rain = 0
KMD1 140404Z 08002KT 08/M02 A303 RMK A01 T00751021  RH  050%=      5-min Rain = 0
KMD1 140405Z 06002KT 08/M02 A303 RMK A01 T00771022  RH  050%=      5-min Rain = 0
KMD1 140406Z 06002KT 08/M02 A303 RMK A01 T00781023  RH  049%=      5-min Rain = 0
KMD1 140407Z 06002KT 08/M02 A3031 RMK A01 T00801023  RH  048%=      5-min Rain = 0
KMD1 140408Z 06002KT 08/M02 A3031 RMK A01 T00811024  RH  048%=      5-min Rain = 0
KMD1 140409Z 05003KT 08/M02 A3031 RMK A01 T00821024  RH  047%=      5-min Rain = 0
KMD1 140410Z 05002KT 08/M02 A3031 RMK A01 T00831022  RH  047%=      5-min Rain = 0
KMD1 140411Z 05003KT 08/M02 A3031 RMK A01 T00831023  RH  047%=      5-min Rain = 0
KMD1 140412Z 05003KT 08/M02 A3031 RMK A01 T00841023  RH  047%=      5-min Rain = 0
KMD1 140413Z 05003KT 08/M02 A3031 RMK A01 T00841023  RH  047%=      5-min Rain = 0
KMD1 140414Z 05003KT 08/M02 A3031 RMK A01 T00841023  RH  047%=      5-min Rain = 0
KMD1 140415Z 05003KT 08/M02 A3031 RMK A01 T00841024  RH  047%=      5-min Rain = 0
KMD1 140416Z 05004KT 09/M02 A3031 RMK A01 T00851024  RH  046%=      5-min Rain = 0
KMD1 140417Z 05004KT 08/M02 A3031 RMK A01 T00841023  RH  047%=      5-min Rain = 0
KMD1 140418Z 04004KT 08/M02 A3031 RMK A01 T00831021  RH  048%=      5-min Rain = 0
KMD1 140419Z 04004KT 08/M02 A3031 RMK A01 T00801021  RH  049%=      5-min Rain = 0
KMD1 140420Z 04004KT 08/M02 A3031 RMK A01 T00791021  RH  049%=      5-min Rain = 0
KMD1 140421Z 04004KT 08/M02 A3031 RMK A01 T00781019  RH  050%=      5-min Rain = 0
KMD1 140422Z 04004KT 08/M02 A3031 RMK A01 T00751019  RH  051%=      5-min Rain = 0
KMD1 140423Z 03004KT 07/M02 A3031 RMK A01 T00711018  RH  053%=      5-min Rain = 0
KMD1 140424Z 04004KT 07/M02 A3031 RMK A01 T00681018  RH  054%=      5-min Rain = 0
KMD1 140425Z 04004KT 07/M02 A3031 RMK A01 T00661017  RH  055%=      5-min Rain = 0
KMD1 140426Z 04004KT 07/M02 A3031 RMK A01 T00651017  RH  056%=      5-min Rain = 0
KMD1 140427Z 04004KT 06/M02 A3031 RMK A01 T00641016  RH  056%=      5-min Rain = 0
KMD1 140428Z 04004KT 06/M02 A3031 RMK A01 T00621015  RH  058%=      5-min Rain = 0
KMD1 140429Z 04004KT 06/M02 A3031 RMK A01 T00611015  RH  058%=      5-min Rain = 0
KMD1 140430Z 04004KT 06/M02 A3031 RMK A01 T00591015  RH  059%=      5-min Rain = 0
KMD1 140431Z 05004KT 06/M02 A3031 RMK A01 T00571015  RH  060%=      5-min Rain = 0
KMD1 140432Z 05004KT 06/M02 A3031 RMK A01 T00561016  RH  060%=      5-min Rain = 0
KMD1 140433Z 05004KT 06/M02 A3031 RMK A01 T00551015  RH  061%=      5-min Rain = 0
KMD1 140434Z 05004KT 05/M01 A3031 RMK A01 T00541014  RH  062%=      5-min Rain = 0
KMD1 140435Z 05004KT 05/M01 A3031 RMK A01 T00531013  RH  063%=      5-min Rain = 0
KMD1 140436Z 05004KT 05/M01 A3031 RMK A01 T00521012  RH  063%=      5-min Rain = 0
KMD1 140437Z 06004KT 05/M01 A3031 RMK A01 T00501012  RH  064%=      5-min Rain = 0
KMD1 140438Z 05004KT 05/M01 A3031 RMK A01 T00491012  RH  065%=      5-min Rain = 0
KMD1 140439Z 05004KT 05/M01 A3031 RMK A01 T00491013  RH  064%=      5-min Rain = 0
KMD1 140440Z 05004KT 05/M01 A3031 RMK A01 T00491014  RH  064%=      5-min Rain = 0
KMD1 140441Z 05004KT 05/M02 A3031 RMK A01 T00491016  RH  063%=      5-min Rain = 0
KMD1 140442Z 05004KT 05/M02 A3031 RMK A01 T00501016  RH  062%=      5-min Rain = 0
KMD1 140443Z 06004KT 05/M02 A3031 RMK A01 T00511015  RH  062%=      5-min Rain = 0
KMD1 140444Z 06004KT 05/M02 A3031 RMK A01 T00521015  RH  062%=      5-min Rain = 0
KMD1 140445Z 06004KT 05/M02 A3031 RMK A01 T00521016  RH  061%=      5-min Rain = 0
KMD1 140446Z 06004KT 05/M02 A3031 RMK A01 T00531016  RH  061%=      5-min Rain = 0
KMD1 140447Z 06004KT 06/M02 A3031 RMK A01 T00551018  RH  060%=      5-min Rain = 0
KMD1 140448Z 06004KT 06/M02 A3031 RMK A01 T00561018  RH  059%=      5-min Rain = 0
KMD1 140449Z 07004KT 06/M02 A3031 RMK A01 T00571019  RH  058%=      5-min Rain = 0
KMD1 140450Z 07004KT 06/M02 A303 RMK A01 T00591020  RH  057%=      5-min Rain = 0
KMD1 140451Z 07004KT 06/M02 A303 RMK A01 T00601021  RH  056%=      5-min Rain = 0
KMD1 140452Z 07004KT 06/M02 A303 RMK A01 T00611020  RH  056%=      5-min Rain = 0
KMD1 140453Z 07004KT 06/M02 A303 RMK A01 T00611020  RH  056%=      5-min Rain = 0
KMD1 140454Z 08003KT 06/M02 A303 RMK A01 T00611020  RH  056%=      5-min Rain = 0
KMD1 140455Z 08003KT 06/M02 A303 RMK A01 T00611021  RH  056%=      5-min Rain = 0
KMD1 140456Z 08004KT 06/M02 A303 RMK A01 T00611021  RH  056%=      5-min Rain = 0
KMD1 140457Z 07004KT 06/M02 A3031 RMK A01 T00621021  RH  055%=      5-min Rain = 0
KMD1 140458Z 08003KT 06/M02 A3031 RMK A01 T00621021  RH  055%=      5-min Rain = 0
KMD1 140459Z 07003KT 06/M02 A3031 RMK A01 T00631022  RH  055%=      5-min Rain = 0
KMD1 140500Z 07003KT 06/M02 A3031 RMK A01 T00641023  RH  054%=      5-min Rain = 0

Page generated in 0.0646 seconds.